Observation data for Junction on 11/17/2019      Previous  Date       Current Mesonet Observations  Soil Data  Daily Summary Page  Observations in Plain Language
KJU1 170600Z 17002KT 04/02 A3004 RMK A01 T00410020  RH  087%=      5-min Rain = 0
KJU1 170601Z 18003KT 04/02 A3004 RMK A01 T00400019  RH  086%=      5-min Rain = 0
KJU1 170602Z 19002KT 04/02 A3004 RMK A01 T00390020  RH  087%=      5-min Rain = 0
KJU1 170603Z 19002KT 04/02 A3004 RMK A01 T00390020  RH  087%=      5-min Rain = 0
KJU1 170604Z 18002KT 04/02 A3004 RMK A01 T00390019  RH  087%=      5-min Rain = 0
KJU1 170605Z 18002KT 04/02 A3004 RMK A01 T00380020  RH  087%=      5-min Rain = 0
KJU1 170606Z 19002KT 04/02 A3004 RMK A01 T00390021  RH  088%=      5-min Rain = 0
KJU1 170607Z 19002KT 04/02 A3004 RMK A01 T00400023  RH  089%=      5-min Rain = 0
KJU1 170608Z 19002KT 04/02 A3004 RMK A01 T00410024  RH  089%=      5-min Rain = 0
KJU1 170609Z 20002KT 04/02 A3004 RMK A01 T00410024  RH  089%=      5-min Rain = 0
KJU1 170610Z 20002KT 04/03 A3004 RMK A01 T00420025  RH  089%=      5-min Rain = 0
KJU1 170611Z 19001KT 04/02 A3004 RMK A01 T00410024  RH  088%=      5-min Rain = 0
KJU1 170612Z 17001KT 04/02 A3004 RMK A01 T00390020  RH  087%=      5-min Rain = 0
KJU1 170613Z 16002KT 04/02 A3004 RMK A01 T00380018  RH  087%=      5-min Rain = 0
KJU1 170614Z 16002KT 04/02 A3004 RMK A01 T00370019  RH  088%=      5-min Rain = 0
KJU1 170615Z 16002KT 04/02 A3004 RMK A01 T00370019  RH  088%=      5-min Rain = 0
KJU1 170616Z 17003KT 04/02 A3004 RMK A01 T00360018  RH  088%=      5-min Rain = 0
KJU1 170617Z 16003KT 04/02 A3004 RMK A01 T00350017  RH  088%=      5-min Rain = 0
KJU1 170618Z 17003KT 04/02 A3004 RMK A01 T00350017  RH  088%=      5-min Rain = 0
KJU1 170619Z 17003KT 04/02 A3004 RMK A01 T00350018  RH  089%=      5-min Rain = 0
KJU1 170620Z 17004KT 04/02 A3004 RMK A01 T00350018  RH  089%=      5-min Rain = 0
KJU1 170621Z 16003KT 04/02 A3004 RMK A01 T00360019  RH  089%=      5-min Rain = 0
KJU1 170622Z 16003KT 04/02 A3004 RMK A01 T00370020  RH  089%=      5-min Rain = 0
KJU1 170623Z 17003KT 04/02 A3004 RMK A01 T00370020  RH  089%=      5-min Rain = 0
KJU1 170624Z 16004KT 04/02 A3004 RMK A01 T00360019  RH  089%=      5-min Rain = 0
KJU1 170625Z 15004KT 04/02 A3004 RMK A01 T00360018  RH  088%=      5-min Rain = 0
KJU1 170626Z 16004KT 04/02 A3004 RMK A01 T00350017  RH  088%=      5-min Rain = 0
KJU1 170627Z 16004KT 04/02 A3004 RMK A01 T00350018  RH  089%=      5-min Rain = 0
KJU1 170628Z 16004KT 04/02 A3004 RMK A01 T00360019  RH  089%=      5-min Rain = 0
KJU1 170629Z 17004KT 04/02 A3004 RMK A01 T00370022  RH  090%=      5-min Rain = 0
KJU1 170630Z 16004KT 04/03 A3004 RMK A01 T00400026  RH  090%=      5-min Rain = 0
KJU1 170631Z 17004KT 04/03 A3004 RMK A01 T00440030  RH  091%=      5-min Rain = 0
KJU1 170632Z 17003KT 05/03 A3004 RMK A01 T00480033  RH  090%=      5-min Rain = 0
KJU1 170633Z 17004KT 05/03 A3004 RMK A01 T00520034  RH  088%=      5-min Rain = 0
KJU1 170634Z 17004KT 06/03 A3004 RMK A01 T00560034  RH  086%=      5-min Rain = 0
KJU1 170635Z 16004KT 06/03 A3004 RMK A01 T00600034  RH  083%=      5-min Rain = 0
KJU1 170636Z 16003KT 06/03 A3004 RMK A01 T00620032  RH  081%=      5-min Rain = 0
KJU1 170637Z 17004KT 06/03 A3004 RMK A01 T00630031  RH  080%=      5-min Rain = 0
KJU1 170638Z 16003KT 06/03 A3004 RMK A01 T00630028  RH  079%=      5-min Rain = 0
KJU1 170639Z 17002KT 06/03 A3004 RMK A01 T00620027  RH  078%=      5-min Rain = 0
KJU1 170640Z 17003KT 06/03 A3004 RMK A01 T00610026  RH  079%=      5-min Rain = 0
KJU1 170641Z 16003KT 06/03 A3004 RMK A01 T00600026  RH  079%=      5-min Rain = 0
KJU1 170642Z 16003KT 06/03 A3003 RMK A01 T00590026  RH  079%=      5-min Rain = 0
KJU1 170643Z 16003KT 06/03 A3003 RMK A01 T00580025  RH  079%=      5-min Rain = 0
KJU1 170644Z 16003KT 06/03 A3003 RMK A01 T00580026  RH  080%=      5-min Rain = 0
KJU1 170645Z 16003KT 06/03 A3003 RMK A01 T00600027  RH  079%=      5-min Rain = 0
KJU1 170646Z 15003KT 06/02 A3003 RMK A01 T00590024  RH  078%=      5-min Rain = 0
KJU1 170647Z 16003KT 06/02 A3003 RMK A01 T00560020  RH  077%=      5-min Rain = 0
KJU1 170648Z 17003KT 05/02 A3003 RMK A01 T00540021  RH  079%=      5-min Rain = 0
KJU1 170649Z 17003KT 05/02 A3003 RMK A01 T00540021  RH  080%=      5-min Rain = 0
KJU1 170650Z 17002KT 05/02 A3003 RMK A01 T00540023  RH  080%=      5-min Rain = 0
KJU1 170651Z 17001KT 05/02 A3003 RMK A01 T00540023  RH  081%=      5-min Rain = 0
KJU1 170652Z 17001KT 05/02 A3003 RMK A01 T00530023  RH  081%=      5-min Rain = 0
KJU1 170653Z 15000KT 05/02 A3003 RMK A01 T00530024  RH  082%=      5-min Rain = 0
KJU1 170654Z 03000KT 05/03 A3003 RMK A01 T00520025  RH  082%=      5-min Rain = 0
KJU1 170655Z 02001KT 05/03 A3003 RMK A01 T00510025  RH  083%=      5-min Rain = 0
KJU1 170656Z 02001KT 05/02 A3004 RMK A01 T00500024  RH  084%=      5-min Rain = 0
KJU1 170657Z 01002KT 05/03 A3004 RMK A01 T00490025  RH  084%=      5-min Rain = 0
KJU1 170658Z 02002KT 05/02 A3004 RMK A01 T00480024  RH  085%=      5-min Rain = 0
KJU1 170659Z 02002KT 05/02 A3004 RMK A01 T00460023  RH  085%=      5-min Rain = 0
KJU1 170700Z 02003KT 04/02 A3004 RMK A01 T00430021  RH  086%=      5-min Rain = 0
KJU1 170701Z 03003KT 04/02 A3004 RMK A01 T00410022  RH  088%=      5-min Rain = 0
KJU1 170702Z 03003KT 04/02 A3004 RMK A01 T00410024  RH  089%=      5-min Rain = 0
KJU1 170703Z 03003KT 04/03 A3004 RMK A01 T00410026  RH  090%=      5-min Rain = 0
KJU1 170704Z 03003KT 04/03 A3004 RMK A01 T00400025  RH  090%=      5-min Rain = 0
KJU1 170705Z 04003KT 04/03 A3004 RMK A01 T00400025  RH  090%=      5-min Rain = 0
KJU1 170706Z 04002KT 04/03 A3004 RMK A01 T00390025  RH  091%=      5-min Rain = 0
KJU1 170707Z 05003KT 04/03 A3004 RMK A01 T00390025  RH  091%=      5-min Rain = 0
KJU1 170708Z 05003KT 04/02 A3004 RMK A01 T00380024  RH  091%=      5-min Rain = 0
KJU1 170709Z 06002KT 04/02 A3004 RMK A01 T00370024  RH  091%=      5-min Rain = 0
KJU1 170710Z 05002KT 04/02 A3004 RMK A01 T00370023  RH  091%=      5-min Rain = 0
KJU1 170711Z 05002KT 04/02 A3004 RMK A01 T00370024  RH  091%=      5-min Rain = 0
KJU1 170712Z 05002KT 04/02 A3004 RMK A01 T00370024  RH  091%=      5-min Rain = 0
KJU1 170713Z 06002KT 04/03 A3004 RMK A01 T00380025  RH  092%=      5-min Rain = 0
KJU1 170714Z 06001KT 04/03 A3004 RMK A01 T00380026  RH  092%=      5-min Rain = 0
KJU1 170715Z 09001KT 04/03 A3004 RMK A01 T00380026  RH  091%=      5-min Rain = 0
KJU1 170716Z 10001KT 04/02 A3004 RMK A01 T00370024  RH  091%=      5-min Rain = 0
KJU1 170717Z 11001KT 04/02 A3003 RMK A01 T00360021  RH  091%=      5-min Rain = 0
KJU1 170718Z 12001KT 04/02 A3003 RMK A01 T00350021  RH  091%=      5-min Rain = 0
KJU1 170719Z 13001KT 04/02 A3004 RMK A01 T00350021  RH  091%=      5-min Rain = 0
KJU1 170720Z 13002KT 03/02 A3003 RMK A01 T00340020  RH  091%=      5-min Rain = 0
KJU1 170721Z 15001KT 03/02 A3003 RMK A01 T00330019  RH  091%=      5-min Rain = 0
KJU1 170722Z 17000KT 03/02 A3003 RMK A01 T00330019  RH  091%=      5-min Rain = 0
KJU1 170723Z 18000KT 03/02 A3003 RMK A01 T00330020  RH  091%=      5-min Rain = 0
KJU1 170724Z 00000KT 03/02 A3003 RMK A01 T00330020  RH  092%=      5-min Rain = 0
KJU1 170725Z 00000KT 03/02 A3003 RMK A01 T00340022  RH  092%=      5-min Rain = 0
KJU1 170726Z 21000KT 03/02 A3003 RMK A01 T00340022  RH  092%=      5-min Rain = 0
KJU1 170727Z 21000KT 03/02 A3003 RMK A01 T00330020  RH  092%=      5-min Rain = 0
KJU1 170728Z 23000KT 03/02 A3003 RMK A01 T00330020  RH  092%=      5-min Rain = 0
KJU1 170729Z 23001KT 03/02 A3003 RMK A01 T00320020  RH  092%=      5-min Rain = 0
KJU1 170730Z 23001KT 03/02 A3003 RMK A01 T00320020  RH  092%=      5-min Rain = 0
KJU1 170731Z 22000KT 03/02 A3003 RMK A01 T00310019  RH  092%=      5-min Rain = 0
KJU1 170732Z 00000KT 03/02 A3003 RMK A01 T00320020  RH  092%=      5-min Rain = 0
KJU1 170733Z 25000KT 03/02 A3003 RMK A01 T00320021  RH  093%=      5-min Rain = 0
KJU1 170734Z 25001KT 03/02 A3003 RMK A01 T00330023  RH  093%=      5-min Rain = 0
KJU1 170735Z 25001KT 03/02 A3003 RMK A01 T00340024  RH  093%=      5-min Rain = 0
KJU1 170736Z 25001KT 03/02 A3003 RMK A01 T00340024  RH  093%=      5-min Rain = 0
KJU1 170737Z 25001KT 03/02 A3003 RMK A01 T00340023  RH  093%=      5-min Rain = 0
KJU1 170738Z 25001KT 03/02 A3003 RMK A01 T00310019  RH  092%=      5-min Rain = 0
KJU1 170739Z 25000KT 03/01 A3003 RMK A01 T00280014  RH  091%=      5-min Rain = 0
KJU1 170740Z 00000KT 03/01 A3003 RMK A01 T00260012  RH  091%=      5-min Rain = 0
KJU1 170741Z 00000KT 03/01 A3003 RMK A01 T00250013  RH  092%=      5-min Rain = 0
KJU1 170742Z 00000KT 03/02 A3004 RMK A01 T00270015  RH  092%=      5-min Rain = 0
KJU1 170743Z 00000KT 03/02 A3004 RMK A01 T00280018  RH  093%=      5-min Rain = 0
KJU1 170744Z 00000KT 03/02 A3004 RMK A01 T00290018  RH  093%=      5-min Rain = 0
KJU1 170745Z 00000KT 03/02 A3004 RMK A01 T00280017  RH  092%=      5-min Rain = 0
KJU1 170746Z 00000KT 02/01 A3004 RMK A01 T00240011  RH  091%=      5-min Rain = 0
KJU1 170747Z 00000KT 02/01 A3004 RMK A01 T00220009  RH  091%=      5-min Rain = 0
KJU1 170748Z 00000KT 02/01 A3004 RMK A01 T00220009  RH  091%=      5-min Rain = 0
KJU1 170749Z 00000KT 02/01 A3004 RMK A01 T00210008  RH  091%=      5-min Rain = 0
KJU1 170750Z 00000KT 02/01 A3004 RMK A01 T00210009  RH  092%=      5-min Rain = 0
KJU1 170751Z 00000KT 02/01 A3004 RMK A01 T00210010  RH  092%=      5-min Rain = 0
KJU1 170752Z 20000KT 02/01 A3004 RMK A01 T00210010  RH  092%=      5-min Rain = 0
KJU1 170753Z 19001KT 02/01 A3004 RMK A01 T00200009  RH  092%=      5-min Rain = 0
KJU1 170754Z 18001KT 02/01 A3004 RMK A01 T00200010  RH  093%=      5-min Rain = 0
KJU1 170755Z 18001KT 02/01 A3004 RMK A01 T00200010  RH  093%=      5-min Rain = 0
KJU1 170756Z 18001KT 02/01 A3004 RMK A01 T00200009  RH  093%=      5-min Rain = 0
KJU1 170757Z 18001KT 02/01 A3004 RMK A01 T00190009  RH  093%=      5-min Rain = 0
KJU1 170758Z 18001KT 02/01 A3004 RMK A01 T00190009  RH  093%=      5-min Rain = 0
KJU1 170759Z 18001KT 02/01 A3004 RMK A01 T00180008  RH  093%=      5-min Rain = 0
KJU1 170800Z 19002KT 02/01 A3004 RMK A01 T00170007  RH  093%=      5-min Rain = 0
KJU1 170801Z 20002KT 02/01 A3004 RMK A01 T00180008  RH  093%=      5-min Rain = 0
KJU1 170802Z 21001KT 02/01 A3004 RMK A01 T00200012  RH  094%=      5-min Rain = 0
KJU1 170803Z 22001KT 02/02 A3004 RMK A01 T00230017  RH  095%=      5-min Rain = 0
KJU1 170804Z 23001KT 03/02 A3004 RMK A01 T00250018  RH  096%=      5-min Rain = 0
KJU1 170805Z 24001KT 03/02 A3004 RMK A01 T00260020  RH  096%=      5-min Rain = 0
KJU1 170806Z 25001KT 03/02 A3004 RMK A01 T00270021  RH  096%=      5-min Rain = 0
KJU1 170807Z 26001KT 03/02 A3004 RMK A01 T00280022  RH  096%=      5-min Rain = 0
KJU1 170808Z 26000KT 03/02 A3004 RMK A01 T00280021  RH  096%=      5-min Rain = 0
KJU1 170809Z 00000KT 03/02 A3004 RMK A01 T00270020  RH  095%=      5-min Rain = 0
KJU1 170810Z 00000KT 03/02 A3004 RMK A01 T00270020  RH  095%=      5-min Rain = 0
KJU1 170811Z 00000KT 02/02 A3004 RMK A01 T00230015  RH  094%=      5-min Rain = 0
KJU1 170812Z 00000KT 02/01 A3004 RMK A01 T00190009  RH  094%=      5-min Rain = 0
KJU1 170813Z 00000KT 02/01 A3004 RMK A01 T00170009  RH  094%=      5-min Rain = 0
KJU1 170814Z 00000KT 02/01 A3004 RMK A01 T00180010  RH  095%=      5-min Rain = 0
KJU1 170815Z 04001KT 02/01 A3004 RMK A01 T00180010  RH  095%=      5-min Rain = 0
KJU1 170816Z 05000KT 02/01 A3004 RMK A01 T00180010  RH  094%=      5-min Rain = 0
KJU1 170817Z 00000KT 02/01 A3004 RMK A01 T00170009  RH  095%=      5-min Rain = 0
KJU1 170818Z 00000KT 02/01 A3004 RMK A01 T00160008  RH  094%=      5-min Rain = 0
KJU1 170819Z 00000KT 01/01 A3004 RMK A01 T00140006  RH  094%=      5-min Rain = 0
KJU1 170820Z 00000KT 01/01 A3004 RMK A01 T00140006  RH  094%=      5-min Rain = 0
KJU1 170821Z 00000KT 02/01 A3004 RMK A01 T00170010  RH  095%=      5-min Rain = 0
KJU1 170822Z 16000KT 02/02 A3004 RMK A01 T00200015  RH  096%=      5-min Rain = 0
KJU1 170823Z 17001KT 02/02 A3004 RMK A01 T00220017  RH  096%=      5-min Rain = 0
KJU1 170824Z 17001KT 02/02 A3004 RMK A01 T00210015  RH  096%=      5-min Rain = 0
KJU1 170825Z 18001KT 02/01 A3004 RMK A01 T00200014  RH  095%=      5-min Rain = 0
KJU1 170826Z 19001KT 02/01 A3004 RMK A01 T00210014  RH  096%=      5-min Rain = 0
KJU1 170827Z 19001KT 02/01 A3004 RMK A01 T00190011  RH  095%=      5-min Rain = 0
KJU1 170828Z 18002KT 02/01 A3004 RMK A01 T00170010  RH  095%=      5-min Rain = 0
KJU1 170829Z 18002KT 02/01 A3004 RMK A01 T00160008  RH  095%=      5-min Rain = 0
KJU1 170830Z 19002KT 02/01 A3004 RMK A01 T00180012  RH  096%=      5-min Rain = 0
KJU1 170831Z 19002KT 02/01 A3004 RMK A01 T00200014  RH  096%=      5-min Rain = 0
KJU1 170832Z 19002KT 02/01 A3004 RMK A01 T00190012  RH  096%=      5-min Rain = 0
KJU1 170833Z 19002KT 02/01 A3004 RMK A01 T00170009  RH  095%=      5-min Rain = 0
KJU1 170834Z 20002KT 02/01 A3004 RMK A01 T00170010  RH  096%=      5-min Rain = 0
KJU1 170835Z 20002KT 02/01 A3004 RMK A01 T00180012  RH  096%=      5-min Rain = 0
KJU1 170836Z 20002KT 02/01 A3004 RMK A01 T00180012  RH  096%=      5-min Rain = 0
KJU1 170837Z 20002KT 02/01 A3004 RMK A01 T00190013  RH  096%=      5-min Rain = 0
KJU1 170838Z 20002KT 02/01 A3004 RMK A01 T00190013  RH  096%=      5-min Rain = 0
KJU1 170839Z 20002KT 02/01 A3004 RMK A01 T00180011  RH  096%=      5-min Rain = 0
KJU1 170840Z 21002KT 02/01 A3004 RMK A01 T00160009  RH  095%=      5-min Rain = 0
KJU1 170841Z 21001KT 02/01 A3004 RMK A01 T00150008  RH  095%=      5-min Rain = 0
KJU1 170842Z 22002KT 02/01 A3004 RMK A01 T00150008  RH  095%=      5-min Rain = 0
KJU1 170843Z 23001KT 02/01 A3004 RMK A01 T00150008  RH  096%=      5-min Rain = 0
KJU1 170844Z 24002KT 02/01 A3004 RMK A01 T00160010  RH  096%=      5-min Rain = 0
KJU1 170845Z 25002KT 02/01 A3004 RMK A01 T00170012  RH  096%=      5-min Rain = 0
KJU1 170846Z 26001KT 02/01 A3004 RMK A01 T00190014  RH  097%=      5-min Rain = 0
KJU1 170847Z 26001KT 02/02 A3004 RMK A01 T00200015  RH  097%=      5-min Rain = 0
KJU1 170848Z 32000KT 02/02 A3004 RMK A01 T00200015  RH  097%=      5-min Rain = 0
KJU1 170849Z 36001KT 02/01 A3004 RMK A01 T00180012  RH  096%=      5-min Rain = 0
KJU1 170850Z 00001KT 01/00 A3004 RMK A01 T00120004  RH  095%=      5-min Rain = 0
KJU1 170851Z 35001KT 01/00 A3004 RMK A01 T00100002  RH  095%=      5-min Rain = 0
KJU1 170852Z 36000KT 01/00 A3004 RMK A01 T00090003  RH  095%=      5-min Rain = 0
KJU1 170853Z 01000KT 01/00 A3004 RMK A01 T00100004  RH  096%=      5-min Rain = 0
KJU1 170854Z 01000KT 01/01 A3004 RMK A01 T00120007  RH  096%=      5-min Rain = 0
KJU1 170855Z 04000KT 01/01 A3004 RMK A01 T00140009  RH  097%=      5-min Rain = 0
KJU1 170856Z 05000KT 02/01 A3004 RMK A01 T00150010  RH  097%=      5-min Rain = 0
KJU1 170857Z 00000KT 02/01 A3004 RMK A01 T00150010  RH  097%=      5-min Rain = 0
KJU1 170858Z 00000KT 02/01 A3004 RMK A01 T00150010  RH  096%=      5-min Rain = 0
KJU1 170859Z 00000KT 01/01 A3003 RMK A01 T00130007  RH  096%=      5-min Rain = 0
KJU1 170900Z 00000KT 01/01 A3003 RMK A01 T00140009  RH  096%=      5-min Rain = 0
KJU1 170901Z 00000KT 02/01 A3003 RMK A01 T00170012  RH  097%=      5-min Rain = 0
KJU1 170902Z 00000KT 02/01 A3003 RMK A01 T00150010  RH  096%=      5-min Rain = 0
KJU1 170903Z 00000KT 01/00 A3003 RMK A01 T00110004  RH  095%=      5-min Rain = 0
KJU1 170904Z 00000KT 01/00 A3003 RMK A01 T00100004  RH  096%=      5-min Rain = 0
KJU1 170905Z 00000KT 01/01 A3003 RMK A01 T00120006  RH  096%=      5-min Rain = 0
KJU1 170906Z 00000KT 01/01 A3003 RMK A01 T00140009  RH  097%=      5-min Rain = 0
KJU1 170907Z 00000KT 02/01 A3003 RMK A01 T00150011  RH  097%=      5-min Rain = 0
KJU1 170908Z 00000KT 02/01 A3003 RMK A01 T00150011  RH  097%=      5-min Rain = 0
KJU1 170909Z 00000KT 01/01 A3003 RMK A01 T00140008  RH  096%=      5-min Rain = 0
KJU1 170910Z 34000KT 01/01 A3003 RMK A01 T00110005  RH  096%=      5-min Rain = 0
KJU1 170911Z 33001KT 01/00 A3003 RMK A01 T00090003  RH  096%=      5-min Rain = 0
KJU1 170912Z 32001KT 01/00 A3003 RMK A01 T00090003  RH  096%=      5-min Rain = 0
KJU1 170913Z 33001KT 01/01 A3003 RMK A01 T00100006  RH  097%=      5-min Rain = 0
KJU1 170914Z 34001KT 01/01 A3003 RMK A01 T00120008  RH  097%=      5-min Rain = 0
KJU1 170915Z 34001KT 01/01 A3003 RMK A01 T00130008  RH  097%=      5-min Rain = 0
KJU1 170916Z 33001KT 01/01 A3003 RMK A01 T00130009  RH  097%=      5-min Rain = 0
KJU1 170917Z 32001KT 01/01 A3003 RMK A01 T00140010  RH  097%=      5-min Rain = 0
KJU1 170918Z 32001KT 01/01 A3003 RMK A01 T00140010  RH  097%=      5-min Rain = 0
KJU1 170919Z 32000KT 01/01 A3003 RMK A01 T00130009  RH  097%=      5-min Rain = 0
KJU1 170920Z 00000KT 01/01 A3003 RMK A01 T00120007  RH  097%=      5-min Rain = 0
KJU1 170921Z 00000KT 01/01 A3003 RMK A01 T00110005  RH  096%=      5-min Rain = 0
KJU1 170922Z 00000KT 01/00 A3003 RMK A01 T00090004  RH  096%=      5-min Rain = 0
KJU1 170923Z 00000KT 01/00 A3003 RMK A01 T00080002  RH  096%=      5-min Rain = 0
KJU1 170924Z 00000KT 01/M00 A3003 RMK A01 T00051001  RH  096%=      5-min Rain = 0
KJU1 170925Z 00000KT 00/M00 A3003 RMK A01 T00041002  RH  096%=      5-min Rain = 0
KJU1 170926Z 00000KT 00/M00 A3003 RMK A01 T00041002  RH  096%=      5-min Rain = 0
KJU1 170927Z 18000KT 01/00 A3003 RMK A01 T00060001  RH  097%=      5-min Rain = 0
KJU1 170928Z 17001KT 01/00 A3003 RMK A01 T00080004  RH  097%=      5-min Rain = 0
KJU1 170929Z 16001KT 01/01 A3003 RMK A01 T00090005  RH  097%=      5-min Rain = 0
KJU1 170930Z 16001KT 01/01 A3003 RMK A01 T00100006  RH  097%=      5-min Rain = 0
KJU1 170931Z 16002KT 01/01 A3003 RMK A01 T00100006  RH  097%=      5-min Rain = 0
KJU1 170932Z 16002KT 01/01 A3003 RMK A01 T00090005  RH  097%=      5-min Rain = 0
KJU1 170933Z 16001KT 01/00 A3003 RMK A01 T00070002  RH  097%=      5-min Rain = 0
KJU1 170934Z 16001KT 01/00 A3003 RMK A01 T00070002  RH  097%=      5-min Rain = 0
KJU1 170935Z 16001KT 01/00 A3003 RMK A01 T00070003  RH  097%=      5-min Rain = 0
KJU1 170936Z 17001KT 01/00 A3003 RMK A01 T00080004  RH  097%=      5-min Rain = 0
KJU1 170937Z 17000KT 01/01 A3003 RMK A01 T00090005  RH  097%=      5-min Rain = 0
KJU1 170938Z 17000KT 01/01 A3003 RMK A01 T00090005  RH  097%=      5-min Rain = 0
KJU1 170939Z 00000KT 01/01 A3003 RMK A01 T00090005  RH  097%=      5-min Rain = 0
KJU1 170940Z 00000KT 01/01 A3003 RMK A01 T00090005  RH  097%=      5-min Rain = 0
KJU1 170941Z 00000KT 01/01 A3003 RMK A01 T00090005  RH  097%=      5-min Rain = 0
KJU1 170942Z 00000KT 01/01 A3003 RMK A01 T00100006  RH  098%=      5-min Rain = 0
KJU1 170943Z 00000KT 01/01 A3003 RMK A01 T00110007  RH  098%=      5-min Rain = 0
KJU1 170944Z 00000KT 01/01 A3003 RMK A01 T00110007  RH  098%=      5-min Rain = 0
KJU1 170945Z 00000KT 01/01 A3003 RMK A01 T00100006  RH  097%=      5-min Rain = 0
KJU1 170946Z 00000KT 01/00 A3003 RMK A01 T00080004  RH  097%=      5-min Rain = 0
KJU1 170947Z 00000KT 01/00 A3003 RMK A01 T00070003  RH  097%=      5-min Rain = 0
KJU1 170948Z 00000KT 01/00 A3003 RMK A01 T00070003  RH  097%=      5-min Rain = 0
KJU1 170949Z 00000KT 01/00 A3003 RMK A01 T00080004  RH  097%=      5-min Rain = 0
KJU1 170950Z 00000KT 01/01 A3003 RMK A01 T00080005  RH  098%=      5-min Rain = 0
KJU1 170951Z 20000KT 01/01 A3003 RMK A01 T00090006  RH  098%=      5-min Rain = 0
KJU1 170952Z 20001KT 01/01 A3002 RMK A01 T00090005  RH  097%=      5-min Rain = 0
KJU1 170953Z 20001KT 01/00 A3002 RMK A01 T00080004  RH  097%=      5-min Rain = 0
KJU1 170954Z 20002KT 01/00 A3002 RMK A01 T00080004  RH  097%=      5-min Rain = 0
KJU1 170955Z 20001KT 01/01 A3002 RMK A01 T00080005  RH  098%=      5-min Rain = 0
KJU1 170956Z 20001KT 01/00 A3002 RMK A01 T00080004  RH  097%=      5-min Rain = 0
KJU1 170957Z 20001KT 01/01 A3002 RMK A01 T00090005  RH  098%=      5-min Rain = 0
KJU1 170958Z 20001KT 01/01 A3002 RMK A01 T00090005  RH  098%=      5-min Rain = 0
KJU1 170959Z 22001KT 01/01 A3002 RMK A01 T00090005  RH  098%=      5-min Rain = 0
KJU1 171000Z 23001KT 01/01 A3002 RMK A01 T00100007  RH  098%=      5-min Rain = 0
KJU1 171001Z 23002KT 01/01 A3002 RMK A01 T00120010  RH  098%=      5-min Rain = 0
KJU1 171002Z 22002KT 01/01 A3002 RMK A01 T00130010  RH  098%=      5-min Rain = 0
KJU1 171003Z 22002KT 01/01 A3002 RMK A01 T00110008  RH  098%=      5-min Rain = 0
KJU1 171004Z 22002KT 01/01 A3002 RMK A01 T00090005  RH  097%=      5-min Rain = 0
KJU1 171005Z 22002KT 01/00 A3002 RMK A01 T00080004  RH  097%=      5-min Rain = 0
KJU1 171006Z 22002KT 01/00 A3002 RMK A01 T00070003  RH  097%=      5-min Rain = 0
KJU1 171007Z 22002KT 01/00 A3002 RMK A01 T00070003  RH  097%=      5-min Rain = 0
KJU1 171008Z 22002KT 01/00 A3002 RMK A01 T00060002  RH  097%=      5-min Rain = 0
KJU1 171009Z 22002KT 00/00 A3002 RMK A01 T00040000  RH  097%=      5-min Rain = 0
KJU1 171010Z 22001KT 00/M00 A3002 RMK A01 T00031001  RH  097%=      5-min Rain = 0
KJU1 171011Z 22001KT 00/M00 A3002 RMK A01 T00021002  RH  097%=      5-min Rain = 0
KJU1 171012Z 21001KT 00/M00 A3002 RMK A01 T00021002  RH  097%=      5-min Rain = 0
KJU1 171013Z 21001KT 00/00 A3002 RMK A01 T000300-0  RH  098%=      5-min Rain = 0
KJU1 171014Z 21001KT 01/00 A3002 RMK A01 T00050003  RH  098%=      5-min Rain = 0
KJU1 171015Z 21001KT 01/01 A3002 RMK A01 T00070005  RH  098%=      5-min Rain = 0
KJU1 171016Z 21001KT 01/00 A3002 RMK A01 T00070004  RH  098%=      5-min Rain = 0
KJU1 171017Z 21001KT 01/00 A3002 RMK A01 T00050002  RH  098%=      5-min Rain = 0
KJU1 171018Z 21001KT 00/00 A3002 RMK A01 T00040000  RH  097%=      5-min Rain = 0
KJU1 171019Z 22001KT 00/00 A3002 RMK A01 T000300-0  RH  097%=      5-min Rain = 0
KJU1 171020Z 22001KT 00/00 A3002 RMK A01 T00040000  RH  098%=      5-min Rain = 0
KJU1 171021Z 22001KT 01/00 A3003 RMK A01 T00060003  RH  098%=      5-min Rain = 0
KJU1 171022Z 20001KT 01/00 A3003 RMK A01 T00070004  RH  098%=      5-min Rain = 0
KJU1 171023Z 21001KT 01/00 A3003 RMK A01 T00070004  RH  098%=      5-min Rain = 0
KJU1 171024Z 22001KT 01/01 A3003 RMK A01 T00070005  RH  098%=      5-min Rain = 0
KJU1 171025Z 21001KT 01/01 A3003 RMK A01 T00080006  RH  098%=      5-min Rain = 0
KJU1 171026Z 21001KT 01/01 A3003 RMK A01 T00080005  RH  098%=      5-min Rain = 0
KJU1 171027Z 21001KT 01/00 A3003 RMK A01 T00050002  RH  098%=      5-min Rain = 0
KJU1 171028Z 20001KT 00/00 A3003 RMK A01 T000300-0  RH  097%=      5-min Rain = 0
KJU1 171029Z 19002KT 00/M00 A3003 RMK A01 T00031001  RH  097%=      5-min Rain = 0
KJU1 171030Z 18002KT 00/00 A3003 RMK A01 T000300-0  RH  098%=      5-min Rain = 0
KJU1 171031Z 18002KT 00/00 A3003 RMK A01 T00030000  RH  098%=      5-min Rain = 0
KJU1 171032Z 18002KT 00/00 A3003 RMK A01 T00040001  RH  098%=      5-min Rain = 0
KJU1 171033Z 18002KT 00/M00 A3003 RMK A01 T00031001  RH  098%=      5-min Rain = 0
KJU1 171034Z 18002KT 00/M00 A3003 RMK A01 T00021001  RH  098%=      5-min Rain = 0
KJU1 171035Z 18003KT 00/00 A3003 RMK A01 T00030000  RH  098%=      5-min Rain = 0
KJU1 171036Z 19003KT 01/00 A3003 RMK A01 T00050002  RH  098%=      5-min Rain = 0
KJU1 171037Z 19003KT 01/00 A3003 RMK A01 T00050002  RH  098%=      5-min Rain = 0
KJU1 171038Z 20004KT 01/00 A3003 RMK A01 T00050002  RH  098%=      5-min Rain = 0
KJU1 171039Z 20003KT 01/00 A3003 RMK A01 T00060003  RH  098%=      5-min Rain = 0
KJU1 171040Z 20003KT 01/01 A3003 RMK A01 T00070005  RH  098%=      5-min Rain = 0
KJU1 171041Z 20003KT 01/01 A3003 RMK A01 T00090008  RH  099%=      5-min Rain = 0
KJU1 171042Z 21003KT 01/01 A3003 RMK A01 T00130011  RH  099%=      5-min Rain = 0
KJU1 171043Z 21003KT 02/01 A3003 RMK A01 T00150014  RH  099%=      5-min Rain = 0
KJU1 171044Z 21003KT 02/02 A3003 RMK A01 T00170016  RH  099%=      5-min Rain = 0
KJU1 171045Z 20003KT 02/02 A3003 RMK A01 T00180016  RH  099%=      5-min Rain = 0
KJU1 171046Z 20003KT 02/02 A3002 RMK A01 T00180016  RH  099%=      5-min Rain = 0
KJU1 171047Z 20002KT 02/02 A3003 RMK A01 T00170015  RH  099%=      5-min Rain = 0
KJU1 171048Z 20002KT 01/01 A3003 RMK A01 T00130010  RH  098%=      5-min Rain = 0
KJU1 171049Z 20001KT 01/01 A3003 RMK A01 T00110009  RH  098%=      5-min Rain = 0
KJU1 171050Z 20001KT 01/01 A3003 RMK A01 T00110009  RH  098%=      5-min Rain = 0
KJU1 171051Z 20001KT 01/01 A3003 RMK A01 T00110009  RH  098%=      5-min Rain = 0
KJU1 171052Z 21001KT 01/01 A3003 RMK A01 T00120010  RH  099%=      5-min Rain = 0
KJU1 171053Z 22001KT 01/01 A3003 RMK A01 T00130011  RH  099%=      5-min Rain = 0
KJU1 171054Z 22000KT 01/01 A3003 RMK A01 T00130011  RH  099%=      5-min Rain = 0
KJU1 171055Z 22000KT 01/01 A3003 RMK A01 T00130011  RH  099%=      5-min Rain = 0
KJU1 171056Z 22001KT 01/01 A3003 RMK A01 T00130011  RH  099%=      5-min Rain = 0
KJU1 171057Z 22001KT 01/01 A3003 RMK A01 T00130011  RH  099%=      5-min Rain = 0
KJU1 171058Z 22001KT 01/01 A3003 RMK A01 T00130011  RH  099%=      5-min Rain = 0
KJU1 171059Z 22001KT 01/01 A3003 RMK A01 T00130011  RH  099%=      5-min Rain = 0
KJU1 171100Z 20001KT 01/01 A3003 RMK A01 T00120010  RH  098%=      5-min Rain = 0
KJU1 171101Z 19002KT 01/01 A3003 RMK A01 T00120010  RH  099%=      5-min Rain = 0
KJU1 171102Z 19002KT 01/01 A3002 RMK A01 T00130011  RH  099%=      5-min Rain = 0
KJU1 171103Z 18002KT 01/01 A3002 RMK A01 T00140013  RH  099%=      5-min Rain = 0
KJU1 171104Z 18003KT 01/01 A3002 RMK A01 T00120010  RH  098%=      5-min Rain = 0
KJU1 171105Z 18003KT 01/01 A3002 RMK A01 T00090006  RH  098%=      5-min Rain = 0
KJU1 171106Z 18003KT 01/00 A3002 RMK A01 T00070004  RH  098%=      5-min Rain = 0
KJU1 171107Z 19003KT 01/00 A3002 RMK A01 T00060003  RH  098%=      5-min Rain = 0
KJU1 171108Z 20003KT 01/00 A3002 RMK A01 T00050003  RH  098%=      5-min Rain = 0
KJU1 171109Z 20003KT 01/00 A3002 RMK A01 T00050003  RH  098%=      5-min Rain = 0
KJU1 171110Z 20003KT 01/01 A3002 RMK A01 T00070005  RH  098%=      5-min Rain = 0
KJU1 171111Z 20003KT 01/01 A3002 RMK A01 T00100008  RH  099%=      5-min Rain = 0
KJU1 171112Z 21003KT 01/01 A3002 RMK A01 T00120011  RH  099%=      5-min Rain = 0
KJU1 171113Z 21003KT 01/01 A3002 RMK A01 T00140013  RH  099%=      5-min Rain = 0
KJU1 171114Z 21003KT 02/01 A3002 RMK A01 T00150014  RH  099%=      5-min Rain = 0
KJU1 171115Z 21003KT 02/01 A3002 RMK A01 T00150014  RH  099%=      5-min Rain = 0
KJU1 171116Z 22002KT 02/01 A3002 RMK A01 T00150014  RH  099%=      5-min Rain = 0
KJU1 171117Z 23002KT 02/01 A3002 RMK A01 T00150014  RH  099%=      5-min Rain = 0
KJU1 171118Z 23002KT 02/02 A3003 RMK A01 T00160015  RH  099%=      5-min Rain = 0
KJU1 171119Z 26001KT 02/02 A3003 RMK A01 T00170016  RH  099%=      5-min Rain = 0
KJU1 171120Z 30001KT 02/02 A3003 RMK A01 T00180017  RH  099%=      5-min Rain = 0
KJU1 171121Z 35001KT 02/02 A3003 RMK A01 T00180017  RH  099%=      5-min Rain = 0
KJU1 171122Z 01002KT 02/02 A3003 RMK A01 T00180017  RH  099%=      5-min Rain = 0
KJU1 171123Z 01002KT 02/01 A3003 RMK A01 T00160014  RH  099%=      5-min Rain = 0
KJU1 171124Z 02003KT 01/01 A3003 RMK A01 T00140011  RH  098%=      5-min Rain = 0
KJU1 171125Z 02003KT 01/01 A3003 RMK A01 T00130011  RH  099%=      5-min Rain = 0
KJU1 171126Z 02003KT 01/01 A3003 RMK A01 T00140012  RH  099%=      5-min Rain = 0
KJU1 171127Z 01002KT 01/01 A3003 RMK A01 T00140012  RH  099%=      5-min Rain = 0
KJU1 171128Z 02002KT 01/01 A3003 RMK A01 T00140012  RH  099%=      5-min Rain = 0
KJU1 171129Z 02002KT 01/01 A3003 RMK A01 T00140013  RH  099%=      5-min Rain = 0
KJU1 171130Z 03001KT 02/01 A3003 RMK A01 T00150014  RH  099%=      5-min Rain = 0
KJU1 171131Z 05001KT 02/01 A3003 RMK A01 T00160014  RH  099%=      5-min Rain = 0
KJU1 171132Z 05001KT 02/01 A3003 RMK A01 T00150013  RH  099%=      5-min Rain = 0
KJU1 171133Z 06001KT 01/01 A3003 RMK A01 T00140011  RH  099%=      5-min Rain = 0
KJU1 171134Z 06001KT 01/01 A3003 RMK A01 T00130011  RH  099%=      5-min Rain = 0
KJU1 171135Z 06001KT 01/01 A3003 RMK A01 T00120010  RH  099%=      5-min Rain = 0
KJU1 171136Z 05001KT 01/01 A3003 RMK A01 T00110009  RH  098%=      5-min Rain = 0
KJU1 171137Z 05001KT 01/01 A3003 RMK A01 T00100008  RH  098%=      5-min Rain = 0
KJU1 171138Z 05001KT 01/01 A3003 RMK A01 T00090007  RH  098%=      5-min Rain = 0
KJU1 171139Z 04001KT 01/01 A3003 RMK A01 T00090007  RH  098%=      5-min Rain = 0
KJU1 171140Z 03001KT 01/01 A3003 RMK A01 T00090006  RH  098%=      5-min Rain = 0
KJU1 171141Z 03001KT 01/01 A3003 RMK A01 T00080006  RH  098%=      5-min Rain = 0
KJU1 171142Z 04001KT 01/01 A3003 RMK A01 T00080006  RH  098%=      5-min Rain = 0
KJU1 171143Z 04001KT 01/01 A3003 RMK A01 T00080006  RH  098%=      5-min Rain = 0
KJU1 171144Z 04001KT 01/01 A3003 RMK A01 T00080006  RH  098%=      5-min Rain = 0
KJU1 171145Z 04001KT 01/01 A3003 RMK A01 T00070005  RH  098%=      5-min Rain = 0
KJU1 171146Z 03001KT 01/01 A3003 RMK A01 T00070005  RH  098%=      5-min Rain = 0
KJU1 171147Z 03001KT 01/01 A3003 RMK A01 T00070005  RH  098%=      5-min Rain = 0
KJU1 171148Z 03001KT 01/01 A3003 RMK A01 T00070005  RH  098%=      5-min Rain = 0
KJU1 171149Z 03001KT 01/01 A3003 RMK A01 T00070005  RH  098%=      5-min Rain = 0
KJU1 171150Z 03001KT 01/01 A3003 RMK A01 T00070005  RH  098%=      5-min Rain = 0
KJU1 171151Z 03001KT 01/01 A3003 RMK A01 T00070005  RH  098%=      5-min Rain = 0
KJU1 171152Z 03000KT 01/01 A3003 RMK A01 T00070005  RH  098%=      5-min Rain = 0
KJU1 171153Z 00000KT 01/01 A3003 RMK A01 T00070005  RH  099%=      5-min Rain = 0
KJU1 171154Z 00000KT 01/01 A3003 RMK A01 T00080006  RH  099%=      5-min Rain = 0
KJU1 171155Z 00000KT 01/01 A3003 RMK A01 T00080006  RH  099%=      5-min Rain = 0
KJU1 171156Z 00000KT 01/01 A3003 RMK A01 T00080006  RH  099%=      5-min Rain = 0
KJU1 171157Z 00000KT 01/01 A3003 RMK A01 T00090007  RH  099%=      5-min Rain = 0
KJU1 171158Z 00000KT 01/01 A3003 RMK A01 T00080005  RH  099%=      5-min Rain = 0
KJU1 171159Z 00000KT 01/01 A3003 RMK A01 T00070005  RH  098%=      5-min Rain = 0
KJU1 171200Z 23000KT 01/01 A3003 RMK A01 T00070005  RH  099%=      5-min Rain = 0
KJU1 171201Z 23001KT 01/01 A3003 RMK A01 T00070005  RH  099%=      5-min Rain = 0
KJU1 171202Z 23001KT 01/01 A3003 RMK A01 T00070005  RH  099%=      5-min Rain = 0
KJU1 171203Z 23001KT 01/01 A3003 RMK A01 T00070005  RH  099%=      5-min Rain = 0
KJU1 171204Z 25001KT 01/01 A3003 RMK A01 T00070005  RH  099%=      5-min Rain = 0
KJU1 171205Z 26001KT 01/01 A3003 RMK A01 T00070005  RH  099%=      5-min Rain = 0
KJU1 171206Z 26000KT 01/01 A3003 RMK A01 T00080006  RH  099%=      5-min Rain = 0
KJU1 171207Z 00000KT 01/01 A3003 RMK A01 T00080006  RH  099%=      5-min Rain = 0
KJU1 171208Z 00000KT 01/01 A3003 RMK A01 T00080007  RH  099%=      5-min Rain = 0
KJU1 171209Z 00000KT 01/00 A3003 RMK A01 T00070004  RH  098%=      5-min Rain = 0
KJU1 171210Z 00000KT 01/00 A3003 RMK A01 T00050002  RH  098%=      5-min Rain = 0
KJU1 171211Z 00000KT 00/00 A3003 RMK A01 T00030001  RH  098%=      5-min Rain = 0
KJU1 171212Z 00000KT 00/00 A3003 RMK A01 T00030000  RH  098%=      5-min Rain = 0
KJU1 171213Z 00000KT 00/00 A3003 RMK A01 T00030000  RH  098%=      5-min Rain = 0
KJU1 171214Z 00000KT 00/00 A3003 RMK A01 T00030001  RH  098%=      5-min Rain = 0
KJU1 171215Z 20000KT 00/00 A3003 RMK A01 T00030001  RH  098%=      5-min Rain = 0
KJU1 171216Z 20001KT 00/M00 A3003 RMK A01 T00021001  RH  098%=      5-min Rain = 0
KJU1 171217Z 20001KT 00/M00 A3003 RMK A01 T00011002  RH  098%=      5-min Rain = 0
KJU1 171218Z 20000KT 00/M00 A3003 RMK A01 T00011002  RH  098%=      5-min Rain = 0
KJU1 171219Z 20000KT 00/M00 A3003 RMK A01 T00011001  RH  098%=      5-min Rain = 0
KJU1 171220Z 00000KT 00/M00 A3003 RMK A01 T00011001  RH  099%=      5-min Rain = 0
KJU1 171221Z 00000KT 00/00 A3004 RMK A01 T00020000  RH  099%=      5-min Rain = 0
KJU1 171222Z 00000KT 00/00 A3004 RMK A01 T00020000  RH  099%=      5-min Rain = 0
KJU1 171223Z 00000KT 00/00 A3004 RMK A01 T00030001  RH  099%=      5-min Rain = 0
KJU1 171224Z 00000KT 00/00 A3004 RMK A01 T00030001  RH  099%=      5-min Rain = 0
KJU1 171225Z 00000KT 00/00 A3004 RMK A01 T00030001  RH  099%=      5-min Rain = 0
KJU1 171226Z 20000KT 00/M00 A3004 RMK A01 T00021001  RH  098%=      5-min Rain = 0
KJU1 171227Z 20000KT 00/M00 A3004 RMK A01 T00011002  RH  098%=      5-min Rain = 0
KJU1 171228Z 00000KT 00/00 A3004 RMK A01 T00-000-2  RH  098%=      5-min Rain = 0
KJU1 171229Z 20000KT 00/00 A3004 RMK A01 T00-000-3  RH  098%=      5-min Rain = 0
KJU1 171230Z 20000KT M00/M00 A3004 RMK A01 T10011004  RH  098%=      5-min Rain = 0
KJU1 171231Z 20000KT M00/M01 A3004 RMK A01 T10021005  RH  098%=      5-min Rain = 0
KJU1 171232Z 20001KT M00/M01 A3003 RMK A01 T10031006  RH  098%=      5-min Rain = 0
KJU1 171233Z 20001KT M00/M01 A3003 RMK A01 T10041006  RH  098%=      5-min Rain = 0
KJU1 171234Z 21001KT M00/M01 A3003 RMK A01 T10041007  RH  098%=      5-min Rain = 0
KJU1 171235Z 21001KT M01/M01 A3003 RMK A01 T10051007  RH  098%=      5-min Rain = 0
KJU1 171236Z 22001KT M00/M01 A3004 RMK A01 T10041006  RH  098%=      5-min Rain = 0
KJU1 171237Z 22001KT M00/M01 A3004 RMK A01 T10031005  RH  098%=      5-min Rain = 0
KJU1 171238Z 22002KT M00/M01 A3004 RMK A01 T10031005  RH  099%=      5-min Rain = 0
KJU1 171239Z 21002KT M00/M01 A3004 RMK A01 T10021005  RH  099%=      5-min Rain = 0
KJU1 171240Z 21002KT M00/M00 A3004 RMK A01 T10011003  RH  099%=      5-min Rain = 0
KJU1 171241Z 21002KT M00/M00 A3004 RMK A01 T10011003  RH  099%=      5-min Rain = 0
KJU1 171242Z 21002KT M00/M00 A3004 RMK A01 T10011003  RH  099%=      5-min Rain = 0
KJU1 171243Z 21002KT 00/M00 A3004 RMK A01 T00011001  RH  099%=      5-min Rain = 0
KJU1 171244Z 22002KT 00/00 A3004 RMK A01 T00020001  RH  099%=      5-min Rain = 0
KJU1 171245Z 23002KT 00/00 A3004 RMK A01 T00030002  RH  099%=      5-min Rain = 0
KJU1 171246Z 23001KT 00/00 A3004 RMK A01 T00040002  RH  099%=      5-min Rain = 0
KJU1 171247Z 23001KT 00/00 A3004 RMK A01 T00030001  RH  099%=      5-min Rain = 0
KJU1 171248Z 23000KT 00/00 A3004 RMK A01 T00030001  RH  099%=      5-min Rain = 0
KJU1 171249Z 00000KT 00/00 A3004 RMK A01 T00020000  RH  099%=      5-min Rain = 0
KJU1 171250Z 00000KT 00/00 A3004 RMK A01 T00020000  RH  099%=      5-min Rain = 0
KJU1 171251Z 00000KT 00/00 A3004 RMK A01 T00020000  RH  099%=      5-min Rain = 0
KJU1 171252Z 00000KT 00/00 A3004 RMK A01 T00040003  RH  099%=      5-min Rain = 0
KJU1 171253Z 00000KT 01/01 A3004 RMK A01 T00060005  RH  099%=      5-min Rain = 0
KJU1 171254Z 29000KT 01/00 A3004 RMK A01 T00050003  RH  099%=      5-min Rain = 0
KJU1 171255Z 29001KT 00/00 A3004 RMK A01 T00030001  RH  099%=      5-min Rain = 0
KJU1 171256Z 28001KT 00/00 A3004 RMK A01 T00030002  RH  099%=      5-min Rain = 0
KJU1 171257Z 27001KT 00/00 A3004 RMK A01 T00030002  RH  099%=      5-min Rain = 0
KJU1 171258Z 27001KT 00/00 A3004 RMK A01 T00040002  RH  099%=      5-min Rain = 0
KJU1 171259Z 28001KT 00/00 A3004 RMK A01 T00040002  RH  099%=      5-min Rain = 0
KJU1 171300Z 28001KT 00/00 A3004 RMK A01 T00040003  RH  099%=      5-min Rain = 0
KJU1 171301Z 28001KT 00/00 A3004 RMK A01 T00040002  RH  099%=      5-min Rain = 0
KJU1 171302Z 28000KT 00/M00 A3004 RMK A01 T00011001  RH  099%=      5-min Rain = 0
KJU1 171303Z 28000KT 00/00 A3004 RMK A01 T00-000-3  RH  098%=      5-min Rain = 0
KJU1 171304Z 00000KT 00/00 A3004 RMK A01 T00-000-2  RH  099%=      5-min Rain = 0
KJU1 171305Z 00000KT 00/00 A3004 RMK A01 T000100-0  RH  099%=      5-min Rain = 0
KJU1 171306Z 00000KT 00/00 A3004 RMK A01 T00030001  RH  099%=      5-min Rain = 0
KJU1 171307Z 17001KT 01/00 A3004 RMK A01 T00050003  RH  099%=      5-min Rain = 0
KJU1 171308Z 17002KT 01/00 A3004 RMK A01 T00050003  RH  099%=      5-min Rain = 0
KJU1 171309Z 17002KT 01/00 A3004 RMK A01 T00050003  RH  099%=      5-min Rain = 0
KJU1 171310Z 17002KT 01/00 A3004 RMK A01 T00050004  RH  099%=      5-min Rain = 0
KJU1 171311Z 17002KT 01/01 A3004 RMK A01 T00060005  RH  099%=      5-min Rain = 0
KJU1 171312Z 17001KT 01/01 A3004 RMK A01 T00060005  RH  099%=      5-min Rain = 0
KJU1 171313Z 17001KT 01/01 A3004 RMK A01 T00070005  RH  099%=      5-min Rain = 0
KJU1 171314Z 19000KT 01/01 A3004 RMK A01 T00080006  RH  099%=      5-min Rain = 0
KJU1 171315Z 19000KT 01/01 A3004 RMK A01 T00080007  RH  099%=      5-min Rain = 0
KJU1 171316Z 00000KT 01/01 A3004 RMK A01 T00090007  RH  099%=      5-min Rain = 0
KJU1 171317Z 00000KT 01/01 A3004 RMK A01 T00090008  RH  099%=      5-min Rain = 0
KJU1 171318Z 00000KT 01/01 A3005 RMK A01 T00100009  RH  099%=      5-min Rain = 0
KJU1 171319Z 00000KT 01/01 A3005 RMK A01 T00110010  RH  099%=      5-min Rain = 0
KJU1 171320Z 00000KT 01/01 A3005 RMK A01 T00120011  RH  099%=      5-min Rain = 0
KJU1 171321Z 00000KT 01/01 A3005 RMK A01 T00130012  RH  099%=      5-min Rain = 0
KJU1 171322Z 00000KT 01/01 A3005 RMK A01 T00140013  RH  099%=      5-min Rain = 0
KJU1 171323Z 00000KT 02/01 A3005 RMK A01 T00150014  RH  099%=      5-min Rain = 0
KJU1 171324Z 00000KT 02/02 A3005 RMK A01 T00160015  RH  100%=      5-min Rain = 0
KJU1 171325Z 00000KT 02/02 A3005 RMK A01 T00170017  RH  100%=      5-min Rain = 0
KJU1 171326Z 12000KT 02/02 A3005 RMK A01 T00180018  RH  100%=      5-min Rain = 0
KJU1 171327Z 12000KT 02/02 A3005 RMK A01 T00190018  RH  100%=      5-min Rain = 0
KJU1 171328Z 00000KT 02/02 A3005 RMK A01 T00200019  RH  100%=      5-min Rain = 0
KJU1 171329Z 00000KT 02/02 A3005 RMK A01 T00200019  RH  100%=      5-min Rain = 0
KJU1 171330Z 13000KT 02/02 A3005 RMK A01 T00210020  RH  100%=      5-min Rain = 0
KJU1 171331Z 15001KT 02/02 A3005 RMK A01 T00210020  RH  100%=      5-min Rain = 0
KJU1 171332Z 16001KT 02/02 A3005 RMK A01 T00220021  RH  100%=      5-min Rain = 0
KJU1 171333Z 16001KT 02/02 A3005 RMK A01 T00230022  RH  100%=      5-min Rain = 0
KJU1 171334Z 17001KT 02/02 A3005 RMK A01 T00240023  RH  100%=      5-min Rain = 0
KJU1 171335Z 17001KT 02/02 A3005 RMK A01 T00240024  RH  100%=      5-min Rain = 0
KJU1 171336Z 17001KT 02/02 A3005 RMK A01 T00240024  RH  100%=      5-min Rain = 0
KJU1 171337Z 17000KT 03/03 A3005 RMK A01 T00250025  RH  100%=      5-min Rain = 0
KJU1 171338Z 00000KT 03/03 A3005 RMK A01 T00260026  RH  100%=      5-min Rain = 0
KJU1 171339Z 18000KT 03/03 A3005 RMK A01 T00270026  RH  100%=      5-min Rain = 0
KJU1 171340Z 17001KT 03/03 A3005 RMK A01 T00270026  RH  100%=      5-min Rain = 0
KJU1 171341Z 17001KT 03/03 A3005 RMK A01 T00270027  RH  100%=      5-min Rain = 0
KJU1 171342Z 16001KT 03/03 A3005 RMK A01 T00280027  RH  100%=      5-min Rain = 0
KJU1 171343Z 16000KT 03/03 A3005 RMK A01 T00280028  RH  100%=      5-min Rain = 0
KJU1 171344Z 00000KT 03/03 A3005 RMK A01 T00290028  RH  100%=      5-min Rain = 0
KJU1 171345Z 00000KT 03/03 A3005 RMK A01 T00300029  RH  100%=      5-min Rain = 0
KJU1 171346Z 00000KT 03/03 A3005 RMK A01 T00300030  RH  100%=      5-min Rain = 0
KJU1 171347Z 02001KT 03/03 A3006 RMK A01 T00310031  RH  100%=      5-min Rain = 0
KJU1 171348Z 01001KT 03/03 A3006 RMK A01 T00320032  RH  100%=      5-min Rain = 0
KJU1 171349Z 01002KT 03/03 A3006 RMK A01 T00330033  RH  100%=      5-min Rain = 0
KJU1 171350Z 00002KT 03/03 A3006 RMK A01 T00340034  RH  100%=      5-min Rain = 0
KJU1 171351Z 35002KT 03/03 A3006 RMK A01 T00340034  RH  100%=      5-min Rain = 0
KJU1 171352Z 36001KT 03/03 A3006 RMK A01 T00340034  RH  100%=      5-min Rain = 0
KJU1 171353Z 01000KT 03/03 A3006 RMK A01 T00340034  RH  100%=      5-min Rain = 0
KJU1 171354Z 04000KT 03/03 A3005 RMK A01 T00340034  RH  100%=      5-min Rain = 0
KJU1 171355Z 00000KT 03/03 A3005 RMK A01 T00340034  RH  100%=      5-min Rain = 0
KJU1 171356Z 00000KT 04/04 A3006 RMK A01 T00350035  RH  100%=      5-min Rain = 0
KJU1 171357Z 00000KT 04/04 A3006 RMK A01 T00350035  RH  100%=      5-min Rain = 0
KJU1 171358Z 00000KT 04/04 A3006 RMK A01 T00360035  RH  100%=      5-min Rain = 0
KJU1 171359Z 00000KT 04/04 A3005 RMK A01 T00360036  RH  100%=      5-min Rain = 0
KJU1 171400Z 00000KT 04/04 A3006 RMK A01 T00370036  RH  100%=      5-min Rain = 0
KJU1 171401Z 17000KT 04/04 A3006 RMK A01 T00370036  RH  100%=      5-min Rain = 0
KJU1 171402Z 17001KT 04/04 A3006 RMK A01 T00370037  RH  100%=      5-min Rain = 0
KJU1 171403Z 17001KT 04/04 A3005 RMK A01 T00370037  RH  100%=      5-min Rain = 0
KJU1 171404Z 20001KT 04/04 A3006 RMK A01 T00370037  RH  100%=      5-min Rain = 0
KJU1 171405Z 18001KT 04/04 A3006 RMK A01 T00380037  RH  100%=      5-min Rain = 0
KJU1 171406Z 18000KT 04/04 A3006 RMK A01 T00380037  RH  100%=      5-min Rain = 0
KJU1 171407Z 18000KT 04/04 A3006 RMK A01 T00380038  RH  100%=      5-min Rain = 0
KJU1 171408Z 00000KT 04/04 A3006 RMK A01 T00390038  RH  100%=      5-min Rain = 0
KJU1 171409Z 00000KT 04/04 A3006 RMK A01 T00390038  RH  100%=      5-min Rain = 0
KJU1 171410Z 00000KT 04/04 A3006 RMK A01 T00390039  RH  099%=      5-min Rain = 0
KJU1 171411Z 00000KT 04/04 A3006 RMK A01 T00400039  RH  100%=      5-min Rain = 0
KJU1 171412Z 06000KT 04/04 A3006 RMK A01 T00400040  RH  100%=      5-min Rain = 0
KJU1 171413Z 06000KT 04/04 A3006 RMK A01 T00410040  RH  099%=      5-min Rain = 0
KJU1 171414Z 07001KT 04/04 A3006 RMK A01 T00420041  RH  100%=      5-min Rain = 0
KJU1 171415Z 07001KT 04/04 A3006 RMK A01 T00420041  RH  099%=      5-min Rain = 0
KJU1 171416Z 07000KT 04/04 A3006 RMK A01 T00430042  RH  099%=      5-min Rain = 0
KJU1 171417Z 00000KT 04/04 A3006 RMK A01 T00430042  RH  099%=      5-min Rain = 0
KJU1 171418Z 35001KT 04/04 A3006 RMK A01 T00430042  RH  099%=      5-min Rain = 0
KJU1 171419Z 34001KT 04/04 A3006 RMK A01 T00430042  RH  099%=      5-min Rain = 0
KJU1 171420Z 33001KT 04/04 A3006 RMK A01 T00440043  RH  099%=      5-min Rain = 0
KJU1 171421Z 33001KT 05/04 A3006 RMK A01 T00450044  RH  099%=      5-min Rain = 0
KJU1 171422Z 33001KT 05/04 A3006 RMK A01 T00450044  RH  099%=      5-min Rain = 0
KJU1 171423Z 35001KT 05/05 A3006 RMK A01 T00460045  RH  099%=      5-min Rain = 0
KJU1 171424Z 01001KT 05/05 A3007 RMK A01 T00460045  RH  099%=      5-min Rain = 0
KJU1 171425Z 02000KT 05/05 A3006 RMK A01 T00470046  RH  099%=      5-min Rain = 0
KJU1 171426Z 00000KT 05/05 A3006 RMK A01 T00480047  RH  099%=      5-min Rain = 0
KJU1 171427Z 02000KT 05/05 A3006 RMK A01 T00490047  RH  099%=      5-min Rain = 0
KJU1 171428Z 04001KT 05/05 A3006 RMK A01 T00490048  RH  099%=      5-min Rain = 0
KJU1 171429Z 07001KT 05/05 A3006 RMK A01 T00500048  RH  099%=      5-min Rain = 0
KJU1 171430Z 07001KT 05/05 A3006 RMK A01 T00510049  RH  099%=      5-min Rain = 0
KJU1 171431Z 06002KT 05/05 A3006 RMK A01 T00520050  RH  099%=      5-min Rain = 0
KJU1 171432Z 06001KT 05/05 A3006 RMK A01 T00530051  RH  099%=      5-min Rain = 0
KJU1 171433Z 07001KT 05/05 A3006 RMK A01 T00530051  RH  098%=      5-min Rain = 0
KJU1 171434Z 09002KT 05/05 A3006 RMK A01 T00530051  RH  098%=      5-min Rain = 0
KJU1 171435Z 10002KT 05/05 A3006 RMK A01 T00540052  RH  098%=      5-min Rain = 0
KJU1 171436Z 11002KT 06/05 A3006 RMK A01 T00550053  RH  098%=      5-min Rain = 0
KJU1 171437Z 13002KT 06/05 A3005 RMK A01 T00570054  RH  098%=      5-min Rain = 0
KJU1 171438Z 14002KT 06/06 A3005 RMK A01 T00580056  RH  098%=      5-min Rain = 0
KJU1 171439Z 14002KT 06/06 A3005 RMK A01 T00600057  RH  098%=      5-min Rain = 0
KJU1 171440Z 14002KT 06/06 A3005 RMK A01 T00610059  RH  098%=      5-min Rain = 0
KJU1 171441Z 14001KT 06/06 A3005 RMK A01 T00640061  RH  099%=      5-min Rain = 0
KJU1 171442Z 14002KT 07/06 A3005 RMK A01 T00660064  RH  099%=      5-min Rain = 0
KJU1 171443Z 16002KT 07/07 A3005 RMK A01 T00680066  RH  099%=      5-min Rain = 0
KJU1 171444Z 18002KT 07/07 A3005 RMK A01 T00700068  RH  099%=      5-min Rain = 0
KJU1 171445Z 19003KT 07/07 A3005 RMK A01 T00720070  RH  099%=      5-min Rain = 0
KJU1 171446Z 19002KT 07/07 A3005 RMK A01 T00740072  RH  099%=      5-min Rain = 0
KJU1 171447Z 20003KT 08/08 A3005 RMK A01 T00760075  RH  099%=      5-min Rain = 0
KJU1 171448Z 20003KT 08/08 A3005 RMK A01 T00780076  RH  099%=      5-min Rain = 0
KJU1 171449Z 20002KT 08/08 A3005 RMK A01 T00800078  RH  099%=      5-min Rain = 0
KJU1 171450Z 20003KT 08/08 A3005 RMK A01 T00820080  RH  099%=      5-min Rain = 0
KJU1 171451Z 21003KT 08/08 A3005 RMK A01 T00830082  RH  099%=      5-min Rain = 0
KJU1 171452Z 23002KT 08/08 A3005 RMK A01 T00840083  RH  099%=      5-min Rain = 0
KJU1 171453Z 23002KT 08/08 A3005 RMK A01 T00840081  RH  098%=      5-min Rain = 0
KJU1 171454Z 23002KT 08/08 A3006 RMK A01 T00830080  RH  098%=      5-min Rain = 0
KJU1 171455Z 25002KT 08/08 A3006 RMK A01 T00820079  RH  098%=      5-min Rain = 0
KJU1 171456Z 26003KT 08/08 A3006 RMK A01 T00820078  RH  097%=      5-min Rain = 0
KJU1 171457Z 29003KT 08/08 A3006 RMK A01 T00820078  RH  097%=      5-min Rain = 0
KJU1 171458Z 30003KT 08/08 A3006 RMK A01 T00820077  RH  097%=      5-min Rain = 0
KJU1 171459Z 30003KT 08/08 A3006 RMK A01 T00830077  RH  097%=      5-min Rain = 0
KJU1 171500Z 25003KT 08/08 A3006 RMK A01 T00840079  RH  097%=      5-min Rain = 0
KJU1 171501Z 26002KT 09/08 A3006 RMK A01 T00870083  RH  097%=      5-min Rain = 0
KJU1 171502Z 25002KT 09/08 A3007 RMK A01 T00880083  RH  097%=      5-min Rain = 0
KJU1 171503Z 20002KT 09/08 A3006 RMK A01 T00890084  RH  097%=      5-min Rain = 0
KJU1 171504Z 19005KT 09/09 A3006 RMK A01 T00910087  RH  097%=      5-min Rain = 0
KJU1 171505Z 20005KT 10/09 A3006 RMK A01 T00960094  RH  098%=      5-min Rain = 0
KJU1 171506Z 20008KT 10/10 A3006 RMK A01 T01010100  RH  099%=      5-min Rain = 0
KJU1 171507Z 20007KT 11/10 A3006 RMK A01 T01060104  RH  099%=      5-min Rain = 0
KJU1 171508Z 19006KT 11/11 A3006 RMK A01 T01090107  RH  099%=      5-min Rain = 0
KJU1 171509Z 19008KT 11/11 A3006 RMK A01 T01110109  RH  098%=      5-min Rain = 0
KJU1 171510Z 20008KT 11/11 A3006 RMK A01 T01130110  RH  098%=      5-min Rain = 0
KJU1 171511Z 19008KT 11/11 A3006 RMK A01 T01140110  RH  097%=      5-min Rain = 0
KJU1 171512Z 20009KT 11/11 A3006 RMK A01 T01140110  RH  097%=      5-min Rain = 0
KJU1 171513Z 20007KT 12/11 A3006 RMK A01 T01150110  RH  097%=      5-min Rain = 0
KJU1 171514Z 21007KT 12/11 A3006 RMK A01 T01160110  RH  096%=      5-min Rain = 0
KJU1 171515Z 22006KT 12/11 A3007 RMK A01 T01160109  RH  096%=      5-min Rain = 0
KJU1 171516Z 22005KT 12/11 A3007 RMK A01 T01170109  RH  095%=      5-min Rain = 0
KJU1 171517Z 22006KT 12/11 A3007 RMK A01 T01160109  RH  095%=      5-min Rain = 0
KJU1 171518Z 21006KT 12/11 A3007 RMK A01 T01170108  RH  095%=      5-min Rain = 0
KJU1 171519Z 22006KT 12/11 A3007 RMK A01 T01160108  RH  094%=      5-min Rain = 0
KJU1 171520Z 20005KT 12/11 A3007 RMK A01 T01170108  RH  094%=      5-min Rain = 0
KJU1 171521Z 22006KT 12/11 A3007 RMK A01 T01180108  RH  094%=      5-min Rain = 0
KJU1 171522Z 21006KT 12/11 A3007 RMK A01 T01180108  RH  094%=      5-min Rain = 0
KJU1 171523Z 21006KT 12/11 A3007 RMK A01 T01180108  RH  094%=      5-min Rain = 0
KJU1 171524Z 22009KT 12/11 A3007 RMK A01 T01180107  RH  093%=      5-min Rain = 0
KJU1 171525Z 20009KT 12/11 A3007 RMK A01 T01180107  RH  093%=      5-min Rain = 0
KJU1 171526Z 20008KT 12/11 A3007 RMK A01 T01180107  RH  093%=      5-min Rain = 0
KJU1 171527Z 20008KT 12/11 A3007 RMK A01 T01190107  RH  093%=      5-min Rain = 0
KJU1 171528Z 21008KT 12/11 A3007 RMK A01 T01190107  RH  093%=      5-min Rain = 0
KJU1 171529Z 22006KT 12/11 A3008 RMK A01 T01190107  RH  093%=      5-min Rain = 0
KJU1 171530Z 22007KT 12/11 A3008 RMK A01 T01190107  RH  092%=      5-min Rain = 0
KJU1 171531Z 22006KT 12/11 A3008 RMK A01 T01190107  RH  092%=      5-min Rain = 0
KJU1 171532Z 21005KT 12/11 A3008 RMK A01 T01190107  RH  092%=      5-min Rain = 0
KJU1 171533Z 22005KT 12/11 A3008 RMK A01 T01200108  RH  092%=      5-min Rain = 0
KJU1 171534Z 23005KT 12/11 A3008 RMK A01 T01200108  RH  092%=      5-min Rain = 0
KJU1 171535Z 24007KT 12/11 A3008 RMK A01 T01210108  RH  092%=      5-min Rain = 0
KJU1 171536Z 22007KT 12/11 A3008 RMK A01 T01210108  RH  092%=      5-min Rain = 0
KJU1 171537Z 22006KT 12/11 A3008 RMK A01 T01210108  RH  092%=      5-min Rain = 0
KJU1 171538Z 24005KT 12/11 A3008 RMK A01 T01210108  RH  091%=      5-min Rain = 0
KJU1 171539Z 24006KT 12/11 A3008 RMK A01 T01220108  RH  091%=      5-min Rain = 0
KJU1 171540Z 25005KT 12/11 A3008 RMK A01 T01220108  RH  091%=      5-min Rain = 0
KJU1 171541Z 23004KT 12/11 A3008 RMK A01 T01220108  RH  091%=      5-min Rain = 0
KJU1 171542Z 23005KT 12/11 A3008 RMK A01 T01220108  RH  091%=      5-min Rain = 0
KJU1 171543Z 24006KT 12/11 A3008 RMK A01 T01230108  RH  091%=      5-min Rain = 0
KJU1 171544Z 22006KT 12/11 A3009 RMK A01 T01230108  RH  090%=      5-min Rain = 0
KJU1 171545Z 23003KT 12/11 A3009 RMK A01 T01230108  RH  090%=      5-min Rain = 0
KJU1 171546Z 23003KT 12/11 A3009 RMK A01 T01240108  RH  090%=      5-min Rain = 0
KJU1 171547Z 23006KT 12/11 A3009 RMK A01 T01240109  RH  090%=      5-min Rain = 0
KJU1 171548Z 22005KT 12/11 A3009 RMK A01 T01240108  RH  090%=      5-min Rain = 0
KJU1 171549Z 21006KT 12/11 A3009 RMK A01 T01240107  RH  090%=      5-min Rain = 0
KJU1 171550Z 22005KT 12/11 A3009 RMK A01 T01240108  RH  090%=      5-min Rain = 0
KJU1 171551Z 22005KT 12/11 A3009 RMK A01 T01240107  RH  090%=      5-min Rain = 0
KJU1 171552Z 22005KT 12/11 A3009 RMK A01 T01240108  RH  090%=      5-min Rain = 0
KJU1 171553Z 23004KT 12/11 A3009 RMK A01 T01240108  RH  090%=      5-min Rain = 0
KJU1 171554Z 23005KT 13/11 A3008 RMK A01 T01250108  RH  090%=      5-min Rain = 0
KJU1 171555Z 22006KT 13/11 A3008 RMK A01 T01250108  RH  089%=      5-min Rain = 0
KJU1 171556Z 22007KT 13/11 A3008 RMK A01 T01250108  RH  089%=      5-min Rain = 0
KJU1 171557Z 22007KT 13/11 A3008 RMK A01 T01250108  RH  089%=      5-min Rain = 0
KJU1 171558Z 22005KT 13/11 A3008 RMK A01 T01250108  RH  089%=      5-min Rain = 0
KJU1 171559Z 24005KT 13/11 A3008 RMK A01 T01260108  RH  089%=      5-min Rain = 0
KJU1 171600Z 21005KT 13/11 A3008 RMK A01 T01260108  RH  089%=      5-min Rain = 0
KJU1 171601Z 22003KT 13/11 A3008 RMK A01 T01270108  RH  089%=      5-min Rain = 0
KJU1 171602Z 22003KT 13/11 A3008 RMK A01 T01270109  RH  089%=      5-min Rain = 0
KJU1 171603Z 22006KT 13/11 A3008 RMK A01 T01280109  RH  088%=      5-min Rain = 0
KJU1 171604Z 22006KT 13/11 A3008 RMK A01 T01280107  RH  087%=      5-min Rain = 0
KJU1 171605Z 21007KT 13/11 A3008 RMK A01 T01270107  RH  087%=      5-min Rain = 0
KJU1 171606Z 20007KT 13/11 A3008 RMK A01 T01270106  RH  087%=      5-min Rain = 0
KJU1 171607Z 21008KT 13/11 A3007 RMK A01 T01280107  RH  087%=      5-min Rain = 0
KJU1 171608Z 22005KT 13/11 A3007 RMK A01 T01280106  RH  087%=      5-min Rain = 0
KJU1 171609Z 22006KT 13/11 A3007 RMK A01 T01280106  RH  087%=      5-min Rain = 0
KJU1 171610Z 21007KT 13/11 A3007 RMK A01 T01280106  RH  086%=      5-min Rain = 0
KJU1 171611Z 21005KT 13/11 A3007 RMK A01 T01280105  RH  086%=      5-min Rain = 0
KJU1 171612Z 21005KT 13/11 A3007 RMK A01 T01280106  RH  086%=      5-min Rain = 0
KJU1 171613Z 22005KT 13/11 A3007 RMK A01 T01280106  RH  086%=      5-min Rain = 0
KJU1 171614Z 21004KT 13/11 A3007 RMK A01 T01280105  RH  086%=      5-min Rain = 0
KJU1 171615Z 20007KT 13/11 A3007 RMK A01 T01290106  RH  086%=      5-min Rain = 0
KJU1 171616Z 20008KT 13/11 A3007 RMK A01 T01300106  RH  085%=      5-min Rain = 0
KJU1 171617Z 21005KT 13/11 A3008 RMK A01 T01300107  RH  085%=      5-min Rain = 0
KJU1 171618Z 20005KT 13/11 A3008 RMK A01 T01320108  RH  086%=      5-min Rain = 0
KJU1 171619Z 20005KT 13/11 A3008 RMK A01 T01330107  RH  084%=      5-min Rain = 0
KJU1 171620Z 20006KT 13/11 A3008 RMK A01 T01330108  RH  084%=      5-min Rain = 0
KJU1 171621Z 20007KT 13/11 A3008 RMK A01 T01340107  RH  084%=      5-min Rain = 0
KJU1 171622Z 21008KT 13/11 A3008 RMK A01 T01340106  RH  083%=      5-min Rain = 0
KJU1 171623Z 20008KT 13/11 A3008 RMK A01 T01340107  RH  084%=      5-min Rain = 0
KJU1 171624Z 20008KT 13/11 A3008 RMK A01 T01330105  RH  083%=      5-min Rain = 0
KJU1 171625Z 21008KT 13/11 A3008 RMK A01 T01340106  RH  083%=      5-min Rain = 0
KJU1 171626Z 22007KT 13/11 A3008 RMK A01 T01340106  RH  084%=      5-min Rain = 0
KJU1 171627Z 22008KT 14/11 A3008 RMK A01 T01350107  RH  083%=      5-min Rain = 0
KJU1 171628Z 23008KT 14/11 A3008 RMK A01 T01350106  RH  082%=      5-min Rain = 0
KJU1 171629Z 23005KT 14/11 A3008 RMK A01 T01350106  RH  083%=      5-min Rain = 0
KJU1 171630Z 20005KT 14/11 A3008 RMK A01 T01360108  RH  083%=      5-min Rain = 0
KJU1 171631Z 19006KT 14/11 A3008 RMK A01 T01380107  RH  082%=      5-min Rain = 0
KJU1 171632Z 19007KT 14/11 A3008 RMK A01 T01380108  RH  082%=      5-min Rain = 0
KJU1 171633Z 21007KT 14/11 A3008 RMK A01 T01380108  RH  082%=      5-min Rain = 0
KJU1 171634Z 21008KT 14/11 A3008 RMK A01 T01380107  RH  081%=      5-min Rain = 0
KJU1 171635Z 22006KT 14/11 A3008 RMK A01 T01370105  RH  081%=      5-min Rain = 0
KJU1 171636Z 22007KT 14/11 A3008 RMK A01 T01370107  RH  082%=      5-min Rain = 0
KJU1 171637Z 22006KT 14/11 A3008 RMK A01 T01380107  RH  082%=      5-min Rain = 0
KJU1 171638Z 22006KT 14/11 A3008 RMK A01 T01380106  RH  081%=      5-min Rain = 0
KJU1 171639Z 21005KT 14/11 A3008 RMK A01 T01380105  RH  081%=      5-min Rain = 0
KJU1 171640Z 21005KT 14/11 A3008 RMK A01 T01380106  RH  081%=      5-min Rain = 0
KJU1 171641Z 23004KT 14/11 A3008 RMK A01 T01380106  RH  081%=      5-min Rain = 0
KJU1 171642Z 25005KT 14/11 A3008 RMK A01 T01380106  RH  081%=      5-min Rain = 0
KJU1 171643Z 22004KT 14/11 A3008 RMK A01 T01380106  RH  081%=      5-min Rain = 0
KJU1 171644Z 24003KT 14/11 A3008 RMK A01 T01380107  RH  081%=      5-min Rain = 0
KJU1 171645Z 23005KT 14/11 A3008 RMK A01 T01390107  RH  081%=      5-min Rain = 0
KJU1 171646Z 23003KT 14/11 A3008 RMK A01 T01390107  RH  081%=      5-min Rain = 0
KJU1 171647Z 24004KT 14/11 A3008 RMK A01 T01390107  RH  081%=      5-min Rain = 0
KJU1 171648Z 23003KT 14/11 A3008 RMK A01 T01390107  RH  081%=      5-min Rain = 0
KJU1 171649Z 22004KT 14/11 A3008 RMK A01 T01390107  RH  081%=      5-min Rain = 0
KJU1 171650Z 23004KT 14/11 A3008 RMK A01 T01390106  RH  081%=      5-min Rain = 0
KJU1 171651Z 21005KT 14/11 A3008 RMK A01 T01390106  RH  080%=      5-min Rain = 0
KJU1 171652Z 23006KT 14/11 A3008 RMK A01 T01390106  RH  081%=      5-min Rain = 0
KJU1 171653Z 23004KT 14/11 A3008 RMK A01 T01400107  RH  081%=      5-min Rain = 0
KJU1 171654Z 23004KT 14/11 A3008 RMK A01 T01400108  RH  081%=      5-min Rain = 0
KJU1 171655Z 23003KT 14/11 A3008 RMK A01 T01400107  RH  080%=      5-min Rain = 0
KJU1 171656Z 22004KT 14/11 A3008 RMK A01 T01400107  RH  080%=      5-min Rain = 0
KJU1 171657Z 24005KT 14/11 A3008 RMK A01 T01410107  RH  080%=      5-min Rain = 0
KJU1 171658Z 23004KT 14/11 A3008 RMK A01 T01410107  RH  080%=      5-min Rain = 0
KJU1 171659Z 23004KT 14/11 A3008 RMK A01 T01420109  RH  080%=      5-min Rain = 0
KJU1 171700Z 23005KT 14/11 A3008 RMK A01 T01430108  RH  079%=      5-min Rain = 0
KJU1 171701Z 23003KT 14/11 A3008 RMK A01 T01420107  RH  079%=      5-min Rain = 0
KJU1 171702Z 24003KT 14/11 A3008 RMK A01 T01420107  RH  080%=      5-min Rain = 0
KJU1 171703Z 25004KT 14/11 A3008 RMK A01 T01430107  RH  079%=      5-min Rain = 0
KJU1 171704Z 22006KT 14/11 A3008 RMK A01 T01430107  RH  079%=      5-min Rain = 0
KJU1 171705Z 23006KT 14/11 A3008 RMK A01 T01430106  RH  078%=      5-min Rain = 0
KJU1 171706Z 23005KT 14/11 A3008 RMK A01 T01430106  RH  078%=      5-min Rain = 0
KJU1 171707Z 22004KT 14/11 A3008 RMK A01 T01430107  RH  079%=      5-min Rain = 0
KJU1 171708Z 23005KT 14/11 A3008 RMK A01 T01440108  RH  079%=      5-min Rain = 0
KJU1 171709Z 21005KT 14/11 A3008 RMK A01 T01440107  RH  078%=      5-min Rain = 0
KJU1 171710Z 22004KT 15/11 A3008 RMK A01 T01450108  RH  078%=      5-min Rain = 0
KJU1 171711Z 23004KT 15/11 A3008 RMK A01 T01460108  RH  078%=      5-min Rain = 0
KJU1 171712Z 24005KT 15/11 A3008 RMK A01 T01460107  RH  077%=      5-min Rain = 0
KJU1 171713Z 23004KT 15/11 A3008 RMK A01 T01450107  RH  078%=      5-min Rain = 0
KJU1 171714Z 21004KT 15/11 A3007 RMK A01 T01450107  RH  078%=      5-min Rain = 0
KJU1 171715Z 22003KT 15/11 A3007 RMK A01 T01450109  RH  079%=      5-min Rain = 0
KJU1 171716Z 22003KT 15/11 A3007 RMK A01 T01460108  RH  078%=      5-min Rain = 0
KJU1 171717Z 23003KT 15/11 A3007 RMK A01 T01470109  RH  078%=      5-min Rain = 0
KJU1 171718Z 23003KT 15/11 A3007 RMK A01 T01480109  RH  077%=      5-min Rain = 0
KJU1 171719Z 20004KT 15/11 A3007 RMK A01 T01480109  RH  077%=      5-min Rain = 0
KJU1 171720Z 20005KT 15/11 A3007 RMK A01 T01490108  RH  077%=      5-min Rain = 0
KJU1 171721Z 21004KT 15/11 A3007 RMK A01 T01490109  RH  077%=      5-min Rain = 0
KJU1 171722Z 23005KT 15/11 A3007 RMK A01 T01500110  RH  077%=      5-min Rain = 0
KJU1 171723Z 22005KT 15/11 A3007 RMK A01 T01510109  RH  076%=      5-min Rain = 0
KJU1 171724Z 23003KT 15/11 A3007 RMK A01 T01500107  RH  076%=      5-min Rain = 0
KJU1 171725Z 25002KT 15/11 A3007 RMK A01 T01490109  RH  077%=      5-min Rain = 0
KJU1 171726Z 24003KT 15/11 A3007 RMK A01 T01510110  RH  077%=      5-min Rain = 0
KJU1 171727Z 20005KT 15/11 A3007 RMK A01 T01520109  RH  076%=      5-min Rain = 0
KJU1 171728Z 20004KT 15/11 A3007 RMK A01 T01510108  RH  075%=      5-min Rain = 0
KJU1 171729Z 19005KT 15/11 A3007 RMK A01 T01510109  RH  076%=      5-min Rain = 0
KJU1 171730Z 17005KT 15/11 A3007 RMK A01 T01510108  RH  075%=      5-min Rain = 0
KJU1 171731Z 19004KT 15/11 A3007 RMK A01 T01510108  RH  075%=      5-min Rain = 0
KJU1 171732Z 22003KT 15/11 A3007 RMK A01 T01510109  RH  076%=      5-min Rain = 0
KJU1 171733Z 22003KT 15/11 A3007 RMK A01 T01520108  RH  075%=      5-min Rain = 0
KJU1 171734Z 17003KT 15/11 A3007 RMK A01 T01510109  RH  076%=      5-min Rain = 0
KJU1 171735Z 18003KT 15/11 A3007 RMK A01 T01520108  RH  075%=      5-min Rain = 0
KJU1 171736Z 21004KT 15/11 A3007 RMK A01 T01520108  RH  075%=      5-min Rain = 0
KJU1 171737Z 21005KT 15/11 A3007 RMK A01 T01520108  RH  075%=      5-min Rain = 0
KJU1 171738Z 21004KT 15/11 A3006 RMK A01 T01530108  RH  075%=      5-min Rain = 0
KJU1 171739Z 22005KT 16/11 A3006 RMK A01 T01550111  RH  075%=      5-min Rain = 0
KJU1 171740Z 22005KT 16/11 A3006 RMK A01 T01570110  RH  074%=      5-min Rain = 0
KJU1 171741Z 21004KT 16/11 A3006 RMK A01 T01560107  RH  073%=      5-min Rain = 0
KJU1 171742Z 23004KT 15/11 A3006 RMK A01 T01540108  RH  074%=      5-min Rain = 0
KJU1 171743Z 23003KT 15/11 A3006 RMK A01 T01540108  RH  074%=      5-min Rain = 0
KJU1 171744Z 24003KT 15/11 A3006 RMK A01 T01540108  RH  074%=      5-min Rain = 0
KJU1 171745Z 24003KT 15/11 A3006 RMK A01 T01540108  RH  074%=      5-min Rain = 0
KJU1 171746Z 22004KT 16/11 A3006 RMK A01 T01550107  RH  073%=      5-min Rain = 0
KJU1 171747Z 25002KT 16/11 A3006 RMK A01 T01550108  RH  073%=      5-min Rain = 0
KJU1 171748Z 27002KT 16/11 A3006 RMK A01 T01570108  RH  073%=      5-min Rain = 0
KJU1 171749Z 23002KT 16/11 A3006 RMK A01 T01570108  RH  072%=      5-min Rain = 0
KJU1 171750Z 23005KT 16/11 A3006 RMK A01 T01600110  RH  072%=      5-min Rain = 0
KJU1 171751Z 24004KT 16/11 A3006 RMK A01 T01610108  RH  071%=      5-min Rain = 0
KJU1 171752Z 25002KT 16/11 A3006 RMK A01 T01600106  RH  070%=      5-min Rain = 0
KJU1 171753Z 25004KT 16/11 A3005 RMK A01 T01600106  RH  070%=      5-min Rain = 0
KJU1 171754Z 22005KT 16/11 A3005 RMK A01 T01600107  RH  071%=      5-min Rain = 0
KJU1 171755Z 23005KT 16/11 A3005 RMK A01 T01620108  RH  070%=      5-min Rain = 0
KJU1 171756Z 22006KT 16/11 A3005 RMK A01 T01630108  RH  070%=      5-min Rain = 0
KJU1 171757Z 22006KT 16/11 A3005 RMK A01 T01640106  RH  069%=      5-min Rain = 0
KJU1 171758Z 21006KT 16/11 A3005 RMK A01 T01630106  RH  069%=      5-min Rain = 0
KJU1 171759Z 22005KT 16/11 A3005 RMK A01 T01620105  RH  069%=      5-min Rain = 0
KJU1 171800Z 20004KT 16/11 A3005 RMK A01 T01620106  RH  070%=      5-min Rain = 0
KJU1 171801Z 26004KT 16/11 A3005 RMK A01 T01620106  RH  069%=      5-min Rain = 0
KJU1 171802Z 20005KT 16/11 A3005 RMK A01 T01640107  RH  069%=      5-min Rain = 0
KJU1 171803Z 21006KT 16/11 A3005 RMK A01 T01640106  RH  068%=      5-min Rain = 0
KJU1 171804Z 23004KT 17/11 A3005 RMK A01 T01650107  RH  069%=      5-min Rain = 0
KJU1 171805Z 24005KT 17/11 A3005 RMK A01 T01650107  RH  068%=      5-min Rain = 0
KJU1 171806Z 24007KT 17/11 A3005 RMK A01 T01660106  RH  068%=      5-min Rain = 0
KJU1 171807Z 25004KT 17/11 A3005 RMK A01 T01650105  RH  068%=      5-min Rain = 0
KJU1 171808Z 23004KT 16/11 A3005 RMK A01 T01640106  RH  068%=      5-min Rain = 0
KJU1 171809Z 23004KT 17/11 A3005 RMK A01 T01650106  RH  068%=      5-min Rain = 0
KJU1 171810Z 22004KT 17/11 A3005 RMK A01 T01650106  RH  068%=      5-min Rain = 0
KJU1 171811Z 22005KT 17/11 A3005 RMK A01 T01650106  RH  068%=      5-min Rain = 0
KJU1 171812Z 22007KT 17/11 A3004 RMK A01 T01660106  RH  068%=      5-min Rain = 0
KJU1 171813Z 23005KT 17/11 A3004 RMK A01 T01660106  RH  068%=      5-min Rain = 0
KJU1 171814Z 22005KT 17/11 A3004 RMK A01 T01660106  RH  067%=      5-min Rain = 0
KJU1 171815Z 24006KT 17/11 A3004 RMK A01 T01660106  RH  068%=      5-min Rain = 0
KJU1 171816Z 25003KT 17/11 A3004 RMK A01 T01660106  RH  067%=      5-min Rain = 0
KJU1 171817Z 25004KT 17/11 A3004 RMK A01 T01660106  RH  068%=      5-min Rain = 0
KJU1 171818Z 26003KT 17/11 A3004 RMK A01 T01670105  RH  067%=      5-min Rain = 0
KJU1 171819Z 26002KT 17/10 A3004 RMK A01 T01650104  RH  067%=      5-min Rain = 0
KJU1 171820Z 19002KT 17/11 A3004 RMK A01 T01650106  RH  068%=      5-min Rain = 0
KJU1 171821Z 24003KT 17/11 A3004 RMK A01 T01680111  RH  069%=      5-min Rain = 0
KJU1 171822Z 24006KT 17/11 A3004 RMK A01 T01710110  RH  067%=      5-min Rain = 0
KJU1 171823Z 25006KT 17/11 A3004 RMK A01 T01720106  RH  065%=      5-min Rain = 0
KJU1 171824Z 26004KT 17/10 A3004 RMK A01 T01720104  RH  064%=      5-min Rain = 0
KJU1 171825Z 25005KT 17/11 A3004 RMK A01 T01730105  RH  064%=      5-min Rain = 0
KJU1 171826Z 26004KT 17/10 A3004 RMK A01 T01730102  RH  063%=      5-min Rain = 0
KJU1 171827Z 25004KT 17/10 A3004 RMK A01 T01730103  RH  063%=      5-min Rain = 0
KJU1 171828Z 27004KT 17/10 A3004 RMK A01 T01740102  RH  063%=      5-min Rain = 0
KJU1 171829Z 24003KT 18/10 A3004 RMK A01 T01750102  RH  062%=      5-min Rain = 0
KJU1 171830Z 30003KT 18/11 A3004 RMK A01 T01760105  RH  063%=      5-min Rain = 0
KJU1 171831Z 30004KT 18/11 A3004 RMK A01 T01790105  RH  062%=      5-min Rain = 0
KJU1 171832Z 29004KT 18/10 A3004 RMK A01 T01790102  RH  060%=      5-min Rain = 0
KJU1 171833Z 29003KT 18/10 A3004 RMK A01 T01770101  RH  061%=      5-min Rain = 0
KJU1 171834Z 26005KT 18/10 A3004 RMK A01 T01770103  RH  062%=      5-min Rain = 0
KJU1 171835Z 28007KT 18/10 A3004 RMK A01 T01770102  RH  061%=      5-min Rain = 0
KJU1 171836Z 29005KT 18/10 A3004 RMK A01 T01770100  RH  061%=      5-min Rain = 0
KJU1 171837Z 26005KT 18/10 A3004 RMK A01 T01760100  RH  061%=      5-min Rain = 0
KJU1 171838Z 25003KT 18/10 A3004 RMK A01 T01770100  RH  061%=      5-min Rain = 0
KJU1 171839Z 27005KT 18/10 A3004 RMK A01 T01780100  RH  060%=      5-min Rain = 0
KJU1 171840Z 28003KT 18/10 A3004 RMK A01 T01790098  RH  059%=      5-min Rain = 0
KJU1 171841Z 28005KT 18/10 A3004 RMK A01 T01790097  RH  058%=      5-min Rain = 0
KJU1 171842Z 29004KT 18/10 A3004 RMK A01 T01790097  RH  059%=      5-min Rain = 0
KJU1 171843Z 26002KT 18/10 A3003 RMK A01 T01790097  RH  059%=      5-min Rain = 0
KJU1 171844Z 24003KT 18/10 A3003 RMK A01 T01790097  RH  059%=      5-min Rain = 0
KJU1 171845Z 26003KT 18/10 A3003 RMK A01 T01800097  RH  058%=      5-min Rain = 0
KJU1 171846Z 29005KT 18/10 A3003 RMK A01 T01790098  RH  059%=      5-min Rain = 0
KJU1 171847Z 29005KT 18/10 A3004 RMK A01 T01790095  RH  058%=      5-min Rain = 0
KJU1 171848Z 29004KT 18/10 A3004 RMK A01 T01770095  RH  058%=      5-min Rain = 0
KJU1 171849Z 27004KT 18/10 A3004 RMK A01 T01760095  RH  059%=      5-min Rain = 0
KJU1 171850Z 27005KT 18/10 A3003 RMK A01 T01770096  RH  059%=      5-min Rain = 0
KJU1 171851Z 25005KT 18/10 A3003 RMK A01 T01780097  RH  059%=      5-min Rain = 0
KJU1 171852Z 26002KT 18/10 A3003 RMK A01 T01790096  RH  058%=      5-min Rain = 0
KJU1 171853Z 27004KT 18/10 A3003 RMK A01 T01790096  RH  058%=      5-min Rain = 0
KJU1 171854Z 30005KT 18/09 A3003 RMK A01 T01790094  RH  057%=      5-min Rain = 0
KJU1 171855Z 31004KT 18/09 A3003 RMK A01 T01790094  RH  058%=      5-min Rain = 0
KJU1 171856Z 31005KT 18/10 A3003 RMK A01 T01780095  RH  058%=      5-min Rain = 0
KJU1 171857Z 30003KT 18/10 A3003 RMK A01 T01790095  RH  058%=      5-min Rain = 0
KJU1 171858Z 33002KT 18/10 A3003 RMK A01 T01790095  RH  058%=      5-min Rain = 0
KJU1 171859Z 31004KT 18/10 A3003 RMK A01 T01790095  RH  058%=      5-min Rain = 0
KJU1 171900Z 29004KT 18/10 A3003 RMK A01 T01790096  RH  058%=      5-min Rain = 0
KJU1 171901Z 31004KT 18/10 A3003 RMK A01 T01800095  RH  057%=      5-min Rain = 0
KJU1 171902Z 30006KT 18/10 A3003 RMK A01 T01810097  RH  058%=      5-min Rain = 0
KJU1 171903Z 31003KT 18/09 A3003 RMK A01 T01820094  RH  056%=      5-min Rain = 0
KJU1 171904Z 31003KT 18/10 A3003 RMK A01 T01820095  RH  057%=      5-min Rain = 0
KJU1 171905Z 28002KT 18/10 A3003 RMK A01 T01830097  RH  057%=      5-min Rain = 0
KJU1 171906Z 33002KT 18/10 A3003 RMK A01 T01840095  RH  056%=      5-min Rain = 0
KJU1 171907Z 24002KT 18/10 A3002 RMK A01 T01840095  RH  056%=      5-min Rain = 0
KJU1 171908Z 25004KT 18/10 A3002 RMK A01 T01840095  RH  056%=      5-min Rain = 0
KJU1 171909Z 27004KT 19/10 A3002 RMK A01 T01850095  RH  056%=      5-min Rain = 0
KJU1 171910Z 25004KT 18/09 A3002 RMK A01 T01840094  RH  056%=      5-min Rain = 0
KJU1 171911Z 30004KT 18/10 A3002 RMK A01 T01840096  RH  057%=      5-min Rain = 0
KJU1 171912Z 30004KT 19/10 A3002 RMK A01 T01850095  RH  056%=      5-min Rain = 0
KJU1 171913Z 29005KT 18/09 A3002 RMK A01 T01840094  RH  056%=      5-min Rain = 0
KJU1 171914Z 25005KT 18/09 A3002 RMK A01 T01840094  RH  056%=      5-min Rain = 0
KJU1 171915Z 27004KT 18/09 A3002 RMK A01 T01840094  RH  056%=      5-min Rain = 0
KJU1 171916Z 34003KT 18/10 A3002 RMK A01 T01840097  RH  057%=      5-min Rain = 0
KJU1 171917Z 33007KT 19/10 A3002 RMK A01 T01870096  RH  056%=      5-min Rain = 0
KJU1 171918Z 32003KT 19/10 A3002 RMK A01 T01870095  RH  055%=      5-min Rain = 0
KJU1 171919Z 31005KT 19/10 A3002 RMK A01 T01870096  RH  055%=      5-min Rain = 0
KJU1 171920Z 29004KT 19/10 A3002 RMK A01 T01870095  RH  055%=      5-min Rain = 0
KJU1 171921Z 26005KT 19/10 A3002 RMK A01 T01880097  RH  055%=      5-min Rain = 0
KJU1 171922Z 28006KT 19/10 A3002 RMK A01 T01900095  RH  054%=      5-min Rain = 0
KJU1 171923Z 28005KT 19/09 A3002 RMK A01 T01890094  RH  054%=      5-min Rain = 0
KJU1 171924Z 27001KT 19/09 A3002 RMK A01 T01880093  RH  054%=      5-min Rain = 0
KJU1 171925Z 32002KT 19/09 A3002 RMK A01 T01870093  RH  054%=      5-min Rain = 0
KJU1 171926Z 27004KT 19/10 A3002 RMK A01 T01880095  RH  055%=      5-min Rain = 0
KJU1 171927Z 31007KT 19/10 A3001 RMK A01 T01910097  RH  054%=      5-min Rain = 0
KJU1 171928Z 32005KT 19/09 A3001 RMK A01 T01910094  RH  053%=      5-min Rain = 0
KJU1 171929Z 34004KT 19/09 A3001 RMK A01 T01890093  RH  053%=      5-min Rain = 0
KJU1 171930Z 35004KT 19/09 A3001 RMK A01 T01880094  RH  054%=      5-min Rain = 0
KJU1 171931Z 31003KT 19/10 A3001 RMK A01 T01890095  RH  055%=      5-min Rain = 0
KJU1 171932Z 30003KT 19/10 A3001 RMK A01 T01900097  RH  055%=      5-min Rain = 0
KJU1 171933Z 30002KT 19/10 A3001 RMK A01 T01910095  RH  053%=      5-min Rain = 0
KJU1 171934Z 27002KT 19/09 A3001 RMK A01 T01910094  RH  053%=      5-min Rain = 0
KJU1 171935Z 30002KT 19/10 A3001 RMK A01 T01930095  RH  053%=      5-min Rain = 0
KJU1 171936Z 32003KT 19/10 A3001 RMK A01 T01930095  RH  053%=      5-min Rain = 0
KJU1 171937Z 34004KT 19/10 A3001 RMK A01 T01940095  RH  053%=      5-min Rain = 0
KJU1 171938Z 34004KT 20/10 A3001 RMK A01 T01950096  RH  053%=      5-min Rain = 0
KJU1 171939Z 33004KT 20/10 A3001 RMK A01 T01950097  RH  053%=      5-min Rain = 0
KJU1 171940Z 33004KT 20/10 A3001 RMK A01 T01960097  RH  053%=      5-min Rain = 0
KJU1 171941Z 28005KT 20/10 A3001 RMK A01 T01970098  RH  053%=      5-min Rain = 0
KJU1 171942Z 26004KT 20/10 A3001 RMK A01 T01980097  RH  052%=      5-min Rain = 0
KJU1 171943Z 26004KT 20/10 A30 RMK A01 T01980096  RH  052%=      5-min Rain = 0
KJU1 171944Z 26003KT 20/09 A30 RMK A01 T01980094  RH  051%=      5-min Rain = 0
KJU1 171945Z 26004KT 20/09 A30 RMK A01 T01980094  RH  051%=      5-min Rain = 0
KJU1 171946Z 30003KT 20/10 A30 RMK A01 T01980095  RH  051%=      5-min Rain = 0
KJU1 171947Z 28003KT 20/10 A30 RMK A01 T01980096  RH  052%=      5-min Rain = 0
KJU1 171948Z 30002KT 20/09 A30 RMK A01 T01980094  RH  051%=      5-min Rain = 0
KJU1 171949Z 32004KT 20/09 A30 RMK A01 T01970094  RH  051%=      5-min Rain = 0
KJU1 171950Z 31003KT 20/09 A30 RMK A01 T01970093  RH  051%=      5-min Rain = 0
KJU1 171951Z 34001KT 20/10 A30 RMK A01 T01980095  RH  051%=      5-min Rain = 0
KJU1 171952Z 24001KT 20/10 A30 RMK A01 T01990095  RH  051%=      5-min Rain = 0
KJU1 171953Z 19001KT 20/10 A30 RMK A01 T02000095  RH  051%=      5-min Rain = 0
KJU1 171954Z 29002KT 20/10 A30 RMK A01 T02020099  RH  051%=      5-min Rain = 0
KJU1 171955Z 31003KT 20/10 A30 RMK A01 T02040097  RH  050%=      5-min Rain = 0
KJU1 171956Z 26004KT 20/10 A30 RMK A01 T02040095  RH  049%=      5-min Rain = 0
KJU1 171957Z 24004KT 20/09 A30 RMK A01 T02040093  RH  049%=      5-min Rain = 0
KJU1 171958Z 24005KT 20/09 A30 RMK A01 T02030092  RH  049%=      5-min Rain = 0
KJU1 171959Z 25004KT 20/09 A30 RMK A01 T02020093  RH  049%=      5-min Rain = 0
KJU1 172000Z 24004KT 20/09 A30 RMK A01 T02030093  RH  049%=      5-min Rain = 0
KJU1 172001Z 25005KT 20/09 A30 RMK A01 T02030091  RH  048%=      5-min Rain = 0
KJU1 172002Z 28004KT 20/09 A30 RMK A01 T02020090  RH  049%=      5-min Rain = 0
KJU1 172003Z 32005KT 20/09 A30 RMK A01 T02020089  RH  048%=      5-min Rain = 0
KJU1 172004Z 31005KT 20/09 A30 RMK A01 T02010089  RH  048%=      5-min Rain = 0
KJU1 172005Z 27006KT 20/09 A30 RMK A01 T02020090  RH  049%=      5-min Rain = 0
KJU1 172006Z 25005KT 20/09 A30 RMK A01 T02030090  RH  048%=      5-min Rain = 0
KJU1 172007Z 25006KT 20/09 A30 RMK A01 T02040089  RH  048%=      5-min Rain = 0
KJU1 172008Z 29003KT 20/09 A30 RMK A01 T02040089  RH  047%=      5-min Rain = 0
KJU1 172009Z 32004KT 20/09 A30 RMK A01 T02040091  RH  048%=      5-min Rain = 0
KJU1 172010Z 34007KT 21/09 A30 RMK A01 T02050087  RH  047%=      5-min Rain = 0
KJU1 172011Z 32006KT 21/09 A30 RMK A01 T02050086  RH  046%=      5-min Rain = 0
KJU1 172012Z 33008KT 20/08 A30 RMK A01 T02040082  RH  045%=      5-min Rain = 0
KJU1 172013Z 35006KT 20/08 A30 RMK A01 T02030083  RH  046%=      5-min Rain = 0
KJU1 172014Z 33006KT 20/08 A30 RMK A01 T02040083  RH  046%=      5-min Rain = 0
KJU1 172015Z 32007KT 21/08 A30 RMK A01 T02050082  RH  045%=      5-min Rain = 0
KJU1 172016Z 30006KT 20/08 A30 RMK A01 T02030080  RH  045%=      5-min Rain = 0
KJU1 172017Z 31005KT 20/08 A30 RMK A01 T02030080  RH  045%=      5-min Rain = 0
KJU1 172018Z 30006KT 20/08 A30 RMK A01 T02030080  RH  045%=      5-min Rain = 0
KJU1 172019Z 31004KT 20/08 A30 RMK A01 T02030081  RH  045%=      5-min Rain = 0
KJU1 172020Z 30004KT 20/08 A30 RMK A01 T02040083  RH  046%=      5-min Rain = 0
KJU1 172021Z 31005KT 21/08 A30 RMK A01 T02050080  RH  044%=      5-min Rain = 0
KJU1 172022Z 30004KT 20/08 A30 RMK A01 T02040079  RH  044%=      5-min Rain = 0
KJU1 172023Z 27003KT 20/08 A30 RMK A01 T02030078  RH  044%=      5-min Rain = 0
KJU1 172024Z 31003KT 20/08 A30 RMK A01 T02030080  RH  045%=      5-min Rain = 0
KJU1 172025Z 32007KT 20/08 A30 RMK A01 T02040080  RH  045%=      5-min Rain = 0
KJU1 172026Z 30007KT 20/08 A30 RMK A01 T02040079  RH  044%=      5-min Rain = 0
KJU1 172027Z 31005KT 20/08 A30 RMK A01 T02040078  RH  044%=      5-min Rain = 0
KJU1 172028Z 32005KT 20/08 A30 RMK A01 T02030079  RH  045%=      5-min Rain = 0
KJU1 172029Z 32006KT 20/08 A30 RMK A01 T02040079  RH  044%=      5-min Rain = 0
KJU1 172030Z 31004KT 20/08 A30 RMK A01 T02040077  RH  044%=      5-min Rain = 0
KJU1 172031Z 30003KT 20/08 A30 RMK A01 T02030077  RH  044%=      5-min Rain = 0
KJU1 172032Z 32005KT 20/08 A30 RMK A01 T02030079  RH  045%=      5-min Rain = 0
KJU1 172033Z 32007KT 20/08 A30 RMK A01 T02040077  RH  044%=      5-min Rain = 0
KJU1 172034Z 32004KT 20/08 A30 RMK A01 T02030076  RH  044%=      5-min Rain = 0
KJU1 172035Z 33005KT 20/08 A30 RMK A01 T02030078  RH  045%=      5-min Rain = 0
KJU1 172036Z 32004KT 20/08 A30 RMK A01 T02040076  RH  044%=      5-min Rain = 0
KJU1 172037Z 34005KT 20/08 A30 RMK A01 T02040077  RH  044%=      5-min Rain = 0
KJU1 172038Z 34008KT 20/08 A30 RMK A01 T02040078  RH  044%=      5-min Rain = 0
KJU1 172039Z 34007KT 20/08 A30 RMK A01 T02040076  RH  044%=      5-min Rain = 0
KJU1 172040Z 33005KT 20/08 A30 RMK A01 T02030077  RH  044%=      5-min Rain = 0
KJU1 172041Z 32005KT 20/08 A30 RMK A01 T02030077  RH  044%=      5-min Rain = 0
KJU1 172042Z 33004KT 20/08 A30 RMK A01 T02030077  RH  044%=      5-min Rain = 0
KJU1 172043Z 33006KT 20/08 A30 RMK A01 T02040078  RH  044%=      5-min Rain = 0
KJU1 172044Z 36005KT 20/08 A30 RMK A01 T02040076  RH  044%=      5-min Rain = 0
KJU1 172045Z 01005KT 20/08 A30 RMK A01 T02040075  RH  043%=      5-min Rain = 0
KJU1 172046Z 34006KT 20/08 A30 RMK A01 T02040076  RH  043%=      5-min Rain = 0
KJU1 172047Z 36007KT 20/08 A30 RMK A01 T02040076  RH  044%=      5-min Rain = 0
KJU1 172048Z 00006KT 20/08 A30 RMK A01 T02040075  RH  043%=      5-min Rain = 0
KJU1 172049Z 35005KT 20/08 A30 RMK A01 T02040076  RH  044%=      5-min Rain = 0
KJU1 172050Z 00005KT 21/08 A30 RMK A01 T02050076  RH  043%=      5-min Rain = 0
KJU1 172051Z 00007KT 21/08 A30 RMK A01 T02060075  RH  043%=      5-min Rain = 0
KJU1 172052Z 34008KT 21/08 A30 RMK A01 T02060076  RH  043%=      5-min Rain = 0
KJU1 172053Z 34008KT 21/07 A30 RMK A01 T02050072  RH  042%=      5-min Rain = 0
KJU1 172054Z 35005KT 20/07 A30 RMK A01 T02030073  RH  043%=      5-min Rain = 0
KJU1 172055Z 00004KT 20/07 A30 RMK A01 T02030073  RH  043%=      5-min Rain = 0
KJU1 172056Z 35003KT 20/07 A30 RMK A01 T02030073  RH  043%=      5-min Rain = 0
KJU1 172057Z 34005KT 20/07 A2999 RMK A01 T02040073  RH  043%=      5-min Rain = 0
KJU1 172058Z 34004KT 21/07 A2999 RMK A01 T02050074  RH  043%=      5-min Rain = 0
KJU1 172059Z 33006KT 21/07 A30 RMK A01 T02060073  RH  042%=      5-min Rain = 0
KJU1 172100Z 32005KT 21/07 A30 RMK A01 T02060073  RH  042%=      5-min Rain = 0
KJU1 172101Z 31002KT 21/07 A30 RMK A01 T02060074  RH  042%=      5-min Rain = 0
KJU1 172102Z 33004G9KT 21/08 A30 RMK A01 T02060075  RH  042%=      5-min Rain = 0
KJU1 172103Z 33006KT 21/07 A30 RMK A01 T02070073  RH  042%=      5-min Rain = 0
KJU1 172104Z 30006KT 21/07 A30 RMK A01 T02070072  RH  042%=      5-min Rain = 0
KJU1 172105Z 31007KT 21/07 A30 RMK A01 T02070072  RH  042%=      5-min Rain = 0
KJU1 172106Z 31006KT 21/07 A30 RMK A01 T02060072  RH  042%=      5-min Rain = 0
KJU1 172107Z 31006KT 21/07 A30 RMK A01 T02060072  RH  042%=      5-min Rain = 0
KJU1 172108Z 30005KT 21/07 A30 RMK A01 T02060070  RH  041%=      5-min Rain = 0
KJU1 172109Z 29005KT 21/07 A30 RMK A01 T02060072  RH  042%=      5-min Rain = 0
KJU1 172110Z 29003KT 21/07 A30 RMK A01 T02060071  RH  041%=      5-min Rain = 0
KJU1 172111Z 26004KT 21/07 A30 RMK A01 T02060071  RH  042%=      5-min Rain = 0
KJU1 172112Z 27004KT 21/07 A30 RMK A01 T02060070  RH  041%=      5-min Rain = 0
KJU1 172113Z 28003KT 21/07 A30 RMK A01 T02070071  RH  041%=      5-min Rain = 0
KJU1 172114Z 33003KT 21/07 A30 RMK A01 T02070073  RH  042%=      5-min Rain = 0
KJU1 172115Z 32004KT 21/07 A30 RMK A01 T02080072  RH  041%=      5-min Rain = 0
KJU1 172116Z 33006KT 21/07 A30 RMK A01 T02080072  RH  041%=      5-min Rain = 0
KJU1 172117Z 33005KT 21/07 A30 RMK A01 T02080073  RH  042%=      5-min Rain = 0
KJU1 172118Z 33005KT 21/08 A30 RMK A01 T02080075  RH  042%=      5-min Rain = 0
KJU1 172119Z 33005KT 21/07 A30 RMK A01 T02080073  RH  042%=      5-min Rain = 0
KJU1 172120Z 35005KT 21/07 A30 RMK A01 T02080072  RH  041%=      5-min Rain = 0
KJU1 172121Z 34003KT 21/07 A30 RMK A01 T02070072  RH  042%=      5-min Rain = 0
KJU1 172122Z 35004KT 21/08 A30 RMK A01 T02070075  RH  042%=      5-min Rain = 0
KJU1 172123Z 35004KT 21/07 A30 RMK A01 T02080073  RH  042%=      5-min Rain = 0
KJU1 172124Z 32003KT 21/07 A30 RMK A01 T02080073  RH  041%=      5-min Rain = 0
KJU1 172125Z 31004KT 21/08 A30 RMK A01 T02080075  RH  042%=      5-min Rain = 0
KJU1 172126Z 28002KT 21/07 A30 RMK A01 T02090069  RH  040%=      5-min Rain = 0
KJU1 172127Z 28002KT 21/07 A30 RMK A01 T02090070  RH  041%=      5-min Rain = 0
KJU1 172128Z 30001KT 21/07 A30 RMK A01 T02100070  RH  040%=      5-min Rain = 0
KJU1 172129Z 34003KT 21/07 A30 RMK A01 T02110072  RH  041%=      5-min Rain = 0
KJU1 172130Z 35004KT 21/07 A30 RMK A01 T02110072  RH  040%=      5-min Rain = 0
KJU1 172131Z 31005KT 21/07 A30 RMK A01 T02110071  RH  040%=      5-min Rain = 0
KJU1 172132Z 35006KT 21/07 A30 RMK A01 T02100069  RH  040%=      5-min Rain = 0
KJU1 172133Z 35006KT 21/07 A30 RMK A01 T02090068  RH  040%=      5-min Rain = 0
KJU1 172134Z 33005KT 21/07 A30 RMK A01 T02080067  RH  040%=      5-min Rain = 0
KJU1 172135Z 31004KT 21/07 A30 RMK A01 T02070067  RH  040%=      5-min Rain = 0
KJU1 172136Z 31006KT 21/07 A30 RMK A01 T02070069  RH  041%=      5-min Rain = 0
KJU1 172137Z 32004KT 21/07 A30 RMK A01 T02080069  RH  041%=      5-min Rain = 0
KJU1 172138Z 33008KT 21/07 A30 RMK A01 T02080068  RH  040%=      5-min Rain = 0
KJU1 172139Z 34008KT 21/07 A30 RMK A01 T02080068  RH  040%=      5-min Rain = 0
KJU1 172140Z 32006KT 21/07 A30 RMK A01 T02080070  RH  041%=      5-min Rain = 0
KJU1 172141Z 29004KT 21/07 A30 RMK A01 T02080069  RH  040%=      5-min Rain = 0
KJU1 172142Z 30004KT 21/07 A30 RMK A01 T02080069  RH  040%=      5-min Rain = 0
KJU1 172143Z 29003KT 21/07 A30 RMK A01 T02090069  RH  040%=      5-min Rain = 0
KJU1 172144Z 32004KT 21/07 A30 RMK A01 T02090071  RH  041%=      5-min Rain = 0
KJU1 172145Z 35007KT 21/07 A30 RMK A01 T02100071  RH  041%=      5-min Rain = 0
KJU1 172146Z 34008KT 21/07 A30 RMK A01 T02100069  RH  040%=      5-min Rain = 0
KJU1 172147Z 35009KT 21/07 A30 RMK A01 T02080068  RH  040%=      5-min Rain = 0
KJU1 172148Z 34007KT 21/07 A30 RMK A01 T02070071  RH  041%=      5-min Rain = 0
KJU1 172149Z 33007KT 21/07 A30 RMK A01 T02070070  RH  041%=      5-min Rain = 0
KJU1 172150Z 34007KT 21/07 A30 RMK A01 T02070069  RH  041%=      5-min Rain = 0
KJU1 172151Z 36005KT 21/07 A30 RMK A01 T02060067  RH  040%=      5-min Rain = 0
KJU1 172152Z 00005G10KT 21/07 A30 RMK A01 T02050069  RH  041%=      5-min Rain = 0
KJU1 172153Z 35007KT 21/07 A30 RMK A01 T02050068  RH  041%=      5-min Rain = 0
KJU1 172154Z 35005KT 21/07 A30 RMK A01 T02050068  RH  041%=      5-min Rain = 0
KJU1 172155Z 34007KT 21/07 A30 RMK A01 T02050069  RH  041%=      5-min Rain = 0
KJU1 172156Z 34007KT 21/07 A3001 RMK A01 T02050069  RH  041%=      5-min Rain = 0
KJU1 172157Z 33008KT 21/07 A3001 RMK A01 T02050068  RH  041%=      5-min Rain = 0
KJU1 172158Z 34008KT 20/07 A3001 RMK A01 T02040068  RH  041%=      5-min Rain = 0
KJU1 172159Z 33008KT 20/07 A3001 RMK A01 T02040066  RH  041%=      5-min Rain = 0
KJU1 172200Z 34007KT 20/07 A3001 RMK A01 T02030066  RH  041%=      5-min Rain = 0
KJU1 172201Z 34009KT 20/07 A3001 RMK A01 T02020066  RH  041%=      5-min Rain = 0
KJU1 172202Z 35006KT 20/07 A3001 RMK A01 T02020067  RH  042%=      5-min Rain = 0
KJU1 172203Z 36008KT 20/07 A3001 RMK A01 T02020067  RH  042%=      5-min Rain = 0
KJU1 172204Z 35010KT 20/07 A3001 RMK A01 T02010065  RH  041%=      5-min Rain = 0
KJU1 172205Z 35008KT 20/06 A3001 RMK A01 T02000064  RH  041%=      5-min Rain = 0
KJU1 172206Z 34004KT 20/07 A3001 RMK A01 T02000067  RH  042%=      5-min Rain = 0
KJU1 172207Z 35007KT 20/07 A3001 RMK A01 T02000067  RH  042%=      5-min Rain = 0
KJU1 172208Z 34008KT 20/07 A3001 RMK A01 T02000066  RH  042%=      5-min Rain = 0
KJU1 172209Z 35008KT 20/07 A3002 RMK A01 T02000066  RH  042%=      5-min Rain = 0
KJU1 172210Z 34007KT 20/07 A3002 RMK A01 T01990066  RH  042%=      5-min Rain = 0
KJU1 172211Z 34006KT 20/07 A3002 RMK A01 T01980066  RH  042%=      5-min Rain = 0
KJU1 172212Z 34007KT 20/07 A3002 RMK A01 T01980066  RH  042%=      5-min Rain = 0
KJU1 172213Z 33006KT 20/07 A3002 RMK A01 T01980066  RH  042%=      5-min Rain = 0
KJU1 172214Z 33007KT 20/07 A3002 RMK A01 T01970065  RH  042%=      5-min Rain = 0
KJU1 172215Z 33006KT 20/06 A3002 RMK A01 T01960064  RH  042%=      5-min Rain = 0
KJU1 172216Z 33007KT 20/07 A3002 RMK A01 T01960065  RH  043%=      5-min Rain = 0
KJU1 172217Z 33006KT 20/06 A3002 RMK A01 T01950064  RH  042%=      5-min Rain = 0
KJU1 172218Z 33007KT 20/07 A3002 RMK A01 T01950065  RH  043%=      5-min Rain = 0
KJU1 172219Z 34007KT 20/07 A3002 RMK A01 T01950065  RH  043%=      5-min Rain = 0
KJU1 172220Z 34006KT 20/07 A3002 RMK A01 T01950065  RH  043%=      5-min Rain = 0
KJU1 172221Z 34007KT 20/07 A3002 RMK A01 T01960065  RH  043%=      5-min Rain = 0
KJU1 172222Z 34007KT 20/06 A3002 RMK A01 T01960064  RH  042%=      5-min Rain = 0
KJU1 172223Z 33005KT 20/07 A3002 RMK A01 T01960065  RH  043%=      5-min Rain = 0
KJU1 172224Z 33007KT 20/07 A3002 RMK A01 T01950067  RH  043%=      5-min Rain = 0
KJU1 172225Z 33005KT 20/07 A3002 RMK A01 T01950065  RH  043%=      5-min Rain = 0
KJU1 172226Z 33005KT 20/07 A3002 RMK A01 T01950066  RH  043%=      5-min Rain = 0
KJU1 172227Z 34007KT 20/07 A3002 RMK A01 T01950066  RH  043%=      5-min Rain = 0
KJU1 172228Z 34006KT 20/07 A3002 RMK A01 T01950065  RH  043%=      5-min Rain = 0
KJU1 172229Z 32006KT 20/07 A3002 RMK A01 T01950065  RH  043%=      5-min Rain = 0
KJU1 172230Z 32005KT 20/07 A3002 RMK A01 T01950065  RH  043%=      5-min Rain = 0
KJU1 172231Z 33005KT 20/07 A3002 RMK A01 T01950066  RH  043%=      5-min Rain = 0
KJU1 172232Z 33005KT 20/07 A3002 RMK A01 T01950065  RH  043%=      5-min Rain = 0
KJU1 172233Z 32005KT 19/07 A3002 RMK A01 T01940065  RH  043%=      5-min Rain = 0
KJU1 172234Z 34005KT 19/07 A3002 RMK A01 T01940065  RH  043%=      5-min Rain = 0
KJU1 172235Z 33006KT 19/07 A3002 RMK A01 T01930065  RH  043%=      5-min Rain = 0
KJU1 172236Z 33006KT 19/06 A3002 RMK A01 T01930064  RH  043%=      5-min Rain = 0
KJU1 172237Z 34006KT 19/06 A3002 RMK A01 T01920064  RH  043%=      5-min Rain = 0
KJU1 172238Z 34006KT 19/07 A3003 RMK A01 T01920065  RH  043%=      5-min Rain = 0
KJU1 172239Z 33005KT 19/06 A3003 RMK A01 T01910064  RH  044%=      5-min Rain = 0
KJU1 172240Z 34006KT 19/06 A3003 RMK A01 T01910064  RH  043%=      5-min Rain = 0
KJU1 172241Z 33007KT 19/06 A3002 RMK A01 T01920064  RH  043%=      5-min Rain = 0
KJU1 172242Z 34008KT 19/06 A3002 RMK A01 T01910063  RH  043%=      5-min Rain = 0
KJU1 172243Z 33008KT 19/06 A3002 RMK A01 T01910063  RH  043%=      5-min Rain = 0
KJU1 172244Z 34005KT 19/06 A3003 RMK A01 T01910064  RH  043%=      5-min Rain = 0
KJU1 172245Z 35007KT 19/07 A3003 RMK A01 T01910065  RH  044%=      5-min Rain = 0
KJU1 172246Z 35006KT 19/07 A3003 RMK A01 T01910065  RH  044%=      5-min Rain = 0
KJU1 172247Z 33006KT 19/07 A3003 RMK A01 T01900065  RH  044%=      5-min Rain = 0
KJU1 172248Z 35007KT 19/07 A3003 RMK A01 T01900065  RH  044%=      5-min Rain = 0
KJU1 172249Z 35006KT 19/07 A3003 RMK A01 T01900065  RH  044%=      5-min Rain = 0
KJU1 172250Z 34008KT 19/06 A3003 RMK A01 T01890064  RH  044%=      5-min Rain = 0
KJU1 172251Z 34006KT 19/06 A3003 RMK A01 T01890064  RH  044%=      5-min Rain = 0
KJU1 172252Z 34007KT 19/06 A3003 RMK A01 T01880064  RH  044%=      5-min Rain = 0
KJU1 172253Z 33007KT 19/06 A3003 RMK A01 T01880063  RH  044%=      5-min Rain = 0
KJU1 172254Z 33006KT 19/06 A3003 RMK A01 T01880063  RH  044%=      5-min Rain = 0
KJU1 172255Z 33004KT 19/06 A3003 RMK A01 T01870064  RH  044%=      5-min Rain = 0
KJU1 172256Z 33005KT 19/06 A3003 RMK A01 T01870064  RH  045%=      5-min Rain = 0
KJU1 172257Z 33005KT 19/06 A3003 RMK A01 T01870064  RH  045%=      5-min Rain = 0
KJU1 172258Z 34005KT 19/06 A3003 RMK A01 T01870064  RH  045%=      5-min Rain = 0
KJU1 172259Z 33004KT 19/06 A3003 RMK A01 T01860064  RH  045%=      5-min Rain = 0
KJU1 172300Z 34004KT 19/06 A3003 RMK A01 T01860064  RH  045%=      5-min Rain = 0
KJU1 172301Z 34005KT 19/06 A3003 RMK A01 T01860064  RH  045%=      5-min Rain = 0
KJU1 172302Z 34003KT 19/06 A3003 RMK A01 T01860064  RH  045%=      5-min Rain = 0
KJU1 172303Z 34004KT 19/06 A3003 RMK A01 T01860064  RH  045%=      5-min Rain = 0
KJU1 172304Z 34003KT 19/06 A3003 RMK A01 T01850064  RH  045%=      5-min Rain = 0
KJU1 172305Z 34004KT 19/07 A3003 RMK A01 T01850065  RH  045%=      5-min Rain = 0
KJU1 172306Z 34004KT 19/07 A3003 RMK A01 T01850065  RH  046%=      5-min Rain = 0
KJU1 172307Z 34005KT 18/07 A3003 RMK A01 T01840065  RH  046%=      5-min Rain = 0
KJU1 172308Z 35004KT 18/07 A3003 RMK A01 T01840065  RH  046%=      5-min Rain = 0
KJU1 172309Z 35004KT 18/07 A3003 RMK A01 T01840065  RH  046%=      5-min Rain = 0
KJU1 172310Z 35004KT 18/07 A3003 RMK A01 T01830066  RH  046%=      5-min Rain = 0
KJU1 172311Z 35005KT 18/07 A3003 RMK A01 T01830065  RH  046%=      5-min Rain = 0
KJU1 172312Z 35006KT 18/07 A3003 RMK A01 T01830065  RH  046%=      5-min Rain = 0
KJU1 172313Z 33004KT 18/07 A3003 RMK A01 T01840065  RH  046%=      5-min Rain = 0
KJU1 172314Z 34004KT 18/07 A3003 RMK A01 T01840066  RH  046%=      5-min Rain = 0
KJU1 172315Z 33004KT 18/07 A3003 RMK A01 T01830066  RH  046%=      5-min Rain = 0
KJU1 172316Z 33004KT 18/07 A3003 RMK A01 T01830067  RH  047%=      5-min Rain = 0
KJU1 172317Z 34003KT 18/07 A3004 RMK A01 T01820067  RH  047%=      5-min Rain = 0
KJU1 172318Z 33003KT 18/07 A3004 RMK A01 T01810067  RH  047%=      5-min Rain = 0
KJU1 172319Z 34004KT 18/07 A3004 RMK A01 T01800067  RH  048%=      5-min Rain = 0
KJU1 172320Z 33004KT 18/07 A3004 RMK A01 T01800067  RH  048%=      5-min Rain = 0
KJU1 172321Z 33004KT 18/07 A3004 RMK A01 T01800067  RH  048%=      5-min Rain = 0
KJU1 172322Z 34005KT 18/07 A3004 RMK A01 T01790067  RH  048%=      5-min Rain = 0
KJU1 172323Z 34004KT 18/07 A3004 RMK A01 T01790067  RH  048%=      5-min Rain = 0
KJU1 172324Z 34005KT 18/07 A3004 RMK A01 T01780067  RH  048%=      5-min Rain = 0
KJU1 172325Z 34004KT 18/07 A3004 RMK A01 T01790067  RH  048%=      5-min Rain = 0
KJU1 172326Z 34005KT 18/07 A3004 RMK A01 T01780067  RH  048%=      5-min Rain = 0
KJU1 172327Z 34004KT 18/07 A3004 RMK A01 T01780067  RH  048%=      5-min Rain = 0
KJU1 172328Z 34005KT 18/07 A3004 RMK A01 T01770067  RH  048%=      5-min Rain = 0
KJU1 172329Z 34005KT 18/07 A3004 RMK A01 T01770066  RH  048%=      5-min Rain = 0
KJU1 172330Z 34003KT 18/07 A3004 RMK A01 T01760067  RH  049%=      5-min Rain = 0
KJU1 172331Z 34005KT 18/07 A3004 RMK A01 T01760067  RH  049%=      5-min Rain = 0
KJU1 172332Z 33004KT 18/07 A3004 RMK A01 T01750067  RH  049%=      5-min Rain = 0
KJU1 172333Z 34005KT 17/07 A3004 RMK A01 T01740066  RH  049%=      5-min Rain = 0
KJU1 172334Z 34004KT 17/07 A3004 RMK A01 T01740066  RH  049%=      5-min Rain = 0
KJU1 172335Z 34006KT 17/07 A3004 RMK A01 T01740066  RH  049%=      5-min Rain = 0
KJU1 172336Z 34006KT 17/07 A3004 RMK A01 T01740065  RH  049%=      5-min Rain = 0
KJU1 172337Z 34005KT 17/07 A3004 RMK A01 T01740065  RH  049%=      5-min Rain = 0
KJU1 172338Z 35005KT 17/07 A3004 RMK A01 T01740065  RH  049%=      5-min Rain = 0
KJU1 172339Z 34005KT 17/06 A3005 RMK A01 T01740064  RH  048%=      5-min Rain = 0
KJU1 172340Z 35004KT 17/06 A3005 RMK A01 T01730064  RH  049%=      5-min Rain = 0
KJU1 172341Z 34006KT 17/06 A3005 RMK A01 T01720064  RH  049%=      5-min Rain = 0
KJU1 172342Z 34004KT 17/06 A3005 RMK A01 T01720063  RH  049%=      5-min Rain = 0
KJU1 172343Z 34005KT 17/06 A3005 RMK A01 T01720063  RH  049%=      5-min Rain = 0
KJU1 172344Z 34005KT 17/06 A3005 RMK A01 T01720062  RH  049%=      5-min Rain = 0
KJU1 172345Z 35005KT 17/06 A3005 RMK A01 T01720062  RH  049%=      5-min Rain = 0
KJU1 172346Z 35005KT 17/06 A3005 RMK A01 T01710062  RH  049%=      5-min Rain = 0
KJU1 172347Z 35006KT 17/06 A3005 RMK A01 T01700061  RH  049%=      5-min Rain = 0
KJU1 172348Z 35004KT 17/06 A3005 RMK A01 T01700060  RH  049%=      5-min Rain = 0
KJU1 172349Z 35005KT 17/06 A3005 RMK A01 T01700060  RH  049%=      5-min Rain = 0
KJU1 172350Z 35005KT 17/06 A3005 RMK A01 T01700060  RH  048%=      5-min Rain = 0
KJU1 172351Z 34006KT 17/06 A3005 RMK A01 T01690059  RH  048%=      5-min Rain = 0
KJU1 172352Z 35006KT 17/06 A3005 RMK A01 T01700059  RH  048%=      5-min Rain = 0
KJU1 172353Z 35005KT 17/06 A3005 RMK A01 T01700059  RH  048%=      5-min Rain = 0
KJU1 172354Z 35006KT 17/06 A3005 RMK A01 T01700059  RH  048%=      5-min Rain = 0
KJU1 172355Z 34004KT 17/06 A3005 RMK A01 T01700059  RH  048%=      5-min Rain = 0
KJU1 172356Z 35004KT 17/06 A3005 RMK A01 T01680059  RH  049%=      5-min Rain = 0
KJU1 172357Z 35004KT 17/06 A3005 RMK A01 T01670059  RH  049%=      5-min Rain = 0
KJU1 172358Z 35004KT 17/06 A3005 RMK A01 T01660059  RH  049%=      5-min Rain = 0
KJU1 172359Z 35004KT 17/06 A3005 RMK A01 T01660059  RH  049%=      5-min Rain = 0
KJU1 180000Z 35005KT 17/06 A3005 RMK A01 T01660059  RH  049%=      5-min Rain = 0
KJU1 180001Z 35005KT 17/06 A3005 RMK A01 T01650058  RH  049%=      5-min Rain = 0
KJU1 180002Z 35003KT 17/06 A3005 RMK A01 T01650059  RH  049%=      5-min Rain = 0
KJU1 180003Z 35004KT 16/06 A3005 RMK A01 T01640059  RH  050%=      5-min Rain = 0
KJU1 180004Z 35004KT 16/06 A3005 RMK A01 T01640059  RH  050%=      5-min Rain = 0
KJU1 180005Z 34004KT 16/06 A3005 RMK A01 T01630058  RH  050%=      5-min Rain = 0
KJU1 180006Z 35004KT 16/06 A3005 RMK A01 T01640057  RH  049%=      5-min Rain = 0
KJU1 180007Z 34003KT 16/06 A3005 RMK A01 T01640057  RH  049%=      5-min Rain = 0
KJU1 180008Z 34003KT 16/06 A3005 RMK A01 T01640058  RH  049%=      5-min Rain = 0
KJU1 180009Z 35004KT 16/06 A3005 RMK A01 T01630057  RH  049%=      5-min Rain = 0
KJU1 180010Z 34003KT 16/06 A3005 RMK A01 T01630057  RH  049%=      5-min Rain = 0
KJU1 180011Z 33003KT 16/06 A3005 RMK A01 T01630057  RH  049%=      5-min Rain = 0
KJU1 180012Z 34003KT 16/06 A3005 RMK A01 T01630057  RH  050%=      5-min Rain = 0
KJU1 180013Z 34002KT 16/06 A3005 RMK A01 T01620057  RH  050%=      5-min Rain = 0
KJU1 180014Z 33002KT 16/06 A3005 RMK A01 T01620057  RH  050%=      5-min Rain = 0
KJU1 180015Z 33001KT 16/06 A3005 RMK A01 T01610057  RH  050%=      5-min Rain = 0
KJU1 180016Z 33002KT 16/06 A3005 RMK A01 T01600057  RH  050%=      5-min Rain = 0
KJU1 180017Z 31001KT 16/06 A3005 RMK A01 T01590057  RH  051%=      5-min Rain = 0
KJU1 180018Z 31000KT 16/06 A3005 RMK A01 T01580057  RH  051%=      5-min Rain = 0
KJU1 180019Z 30000KT 16/06 A3005 RMK A01 T01550056  RH  052%=      5-min Rain = 0
KJU1 180020Z 29000KT 15/06 A3005 RMK A01 T01510055  RH  053%=      5-min Rain = 0
KJU1 180021Z 00000KT 15/05 A3006 RMK A01 T01460054  RH  054%=      5-min Rain = 0
KJU1 180022Z 23000KT 14/05 A3006 RMK A01 T01420054  RH  055%=      5-min Rain = 0
KJU1 180023Z 20001KT 14/05 A3006 RMK A01 T01380052  RH  056%=      5-min Rain = 0
KJU1 180024Z 19002KT 13/05 A3006 RMK A01 T01330052  RH  058%=      5-min Rain = 0
KJU1 180025Z 18002KT 13/05 A3005 RMK A01 T01300052  RH  059%=      5-min Rain = 0
KJU1 180026Z 18002KT 13/05 A3005 RMK A01 T01280052  RH  060%=      5-min Rain = 0
KJU1 180027Z 18002KT 13/05 A3005 RMK A01 T01280053  RH  061%=      5-min Rain = 0
KJU1 180028Z 19002KT 13/05 A3005 RMK A01 T01270054  RH  061%=      5-min Rain = 0
KJU1 180029Z 19001KT 13/05 A3005 RMK A01 T01260054  RH  061%=      5-min Rain = 0
KJU1 180030Z 19001KT 12/05 A3005 RMK A01 T01240054  RH  062%=      5-min Rain = 0
KJU1 180031Z 19002KT 12/05 A3005 RMK A01 T01230053  RH  062%=      5-min Rain = 0
KJU1 180032Z 19002KT 12/05 A3005 RMK A01 T01220053  RH  063%=      5-min Rain = 0
KJU1 180033Z 20002KT 12/05 A3006 RMK A01 T01200053  RH  063%=      5-min Rain = 0
KJU1 180034Z 23002KT 12/05 A3006 RMK A01 T01180052  RH  064%=      5-min Rain = 0
KJU1 180035Z 23002KT 12/05 A3006 RMK A01 T01180053  RH  065%=      5-min Rain = 0
KJU1 180036Z 23001KT 12/05 A3006 RMK A01 T01180053  RH  065%=      5-min Rain = 0
KJU1 180037Z 24001KT 12/05 A3006 RMK A01 T01160053  RH  065%=      5-min Rain = 0
KJU1 180038Z 25001KT 12/05 A3006 RMK A01 T01160053  RH  065%=      5-min Rain = 0
KJU1 180039Z 24001KT 12/05 A3006 RMK A01 T01150053  RH  066%=      5-min Rain = 0
KJU1 180040Z 22001KT 11/05 A3006 RMK A01 T01130052  RH  066%=      5-min Rain = 0
KJU1 180041Z 22002KT 11/05 A3006 RMK A01 T01110053  RH  067%=      5-min Rain = 0
KJU1 180042Z 24002KT 11/05 A3006 RMK A01 T01110053  RH  068%=      5-min Rain = 0
KJU1 180043Z 22001KT 11/05 A3006 RMK A01 T01100053  RH  068%=      5-min Rain = 0
KJU1 180044Z 21002KT 11/05 A3006 RMK A01 T01090053  RH  068%=      5-min Rain = 0
KJU1 180045Z 21002KT 11/05 A3006 RMK A01 T01080053  RH  069%=      5-min Rain = 0
KJU1 180046Z 21003KT 11/06 A3006 RMK A01 T01090055  RH  069%=      5-min Rain = 0
KJU1 180047Z 22003KT 11/05 A3006 RMK A01 T01110054  RH  068%=      5-min Rain = 0
KJU1 180048Z 23002KT 11/05 A3006 RMK A01 T01100054  RH  068%=      5-min Rain = 0
KJU1 180049Z 24003KT 11/05 A3006 RMK A01 T01100054  RH  068%=      5-min Rain = 0
KJU1 180050Z 24003KT 11/05 A3007 RMK A01 T01100054  RH  068%=      5-min Rain = 0
KJU1 180051Z 24003KT 11/05 A3007 RMK A01 T01100053  RH  068%=      5-min Rain = 0
KJU1 180052Z 24002KT 11/05 A3007 RMK A01 T01080052  RH  068%=      5-min Rain = 0
KJU1 180053Z 25001KT 11/05 A3006 RMK A01 T01060050  RH  069%=      5-min Rain = 0
KJU1 180054Z 25001KT 10/05 A3006 RMK A01 T01030049  RH  069%=      5-min Rain = 0
KJU1 180055Z 26001KT 10/05 A3006 RMK A01 T01000049  RH  071%=      5-min Rain = 0
KJU1 180056Z 28001KT 10/05 A3007 RMK A01 T00970049  RH  072%=      5-min Rain = 0
KJU1 180057Z 26001KT 10/05 A3007 RMK A01 T00960051  RH  073%=      5-min Rain = 0
KJU1 180058Z 25001KT 10/05 A3007 RMK A01 T00950050  RH  074%=      5-min Rain = 0
KJU1 180059Z 23001KT 09/05 A3007 RMK A01 T00940050  RH  074%=      5-min Rain = 0
KJU1 180100Z 24001KT 09/05 A3006 RMK A01 T00930050  RH  075%=      5-min Rain = 0
KJU1 180101Z 25001KT 09/05 A3006 RMK A01 T00920050  RH  075%=      5-min Rain = 0
KJU1 180102Z 27001KT 09/05 A3006 RMK A01 T00920051  RH  075%=      5-min Rain = 0
KJU1 180103Z 27001KT 09/05 A3007 RMK A01 T00920052  RH  076%=      5-min Rain = 0
KJU1 180104Z 26000KT 09/05 A3007 RMK A01 T00940053  RH  076%=      5-min Rain = 0
KJU1 180105Z 26001KT 09/05 A3007 RMK A01 T00940052  RH  075%=      5-min Rain = 0
KJU1 180106Z 26001KT 10/05 A3007 RMK A01 T00950053  RH  075%=      5-min Rain = 0
KJU1 180107Z 26001KT 10/05 A3007 RMK A01 T00960053  RH  075%=      5-min Rain = 0
KJU1 180108Z 27000KT 10/05 A3007 RMK A01 T00970053  RH  074%=      5-min Rain = 0
KJU1 180109Z 00000KT 10/05 A3007 RMK A01 T00960051  RH  073%=      5-min Rain = 0
KJU1 180110Z 00000KT 10/05 A3007 RMK A01 T00950051  RH  074%=      5-min Rain = 0
KJU1 180111Z 17000KT 10/05 A3007 RMK A01 T00950051  RH  074%=      5-min Rain = 0
KJU1 180112Z 18001KT 09/05 A3007 RMK A01 T00920047  RH  073%=      5-min Rain = 0
KJU1 180113Z 21000KT 09/05 A3007 RMK A01 T00900047  RH  075%=      5-min Rain = 0
KJU1 180114Z 18000KT 09/05 A3008 RMK A01 T00890048  RH  075%=      5-min Rain = 0
KJU1 180115Z 16001KT 09/05 A3008 RMK A01 T00880046  RH  075%=      5-min Rain = 0
KJU1 180116Z 16001KT 09/05 A3008 RMK A01 T00860045  RH  075%=      5-min Rain = 0
KJU1 180117Z 16001KT 09/05 A3008 RMK A01 T00860047  RH  077%=      5-min Rain = 0
KJU1 180118Z 16001KT 09/05 A3008 RMK A01 T00850047  RH  077%=      5-min Rain = 0
KJU1 180119Z 16001KT 08/05 A3008 RMK A01 T00840049  RH  078%=      5-min Rain = 0
KJU1 180120Z 17001KT 09/05 A3007 RMK A01 T00870052  RH  079%=      5-min Rain = 0
KJU1 180121Z 17001KT 09/05 A3007 RMK A01 T00880050  RH  077%=      5-min Rain = 0
KJU1 180122Z 18001KT 09/05 A3008 RMK A01 T00860048  RH  077%=      5-min Rain = 0
KJU1 180123Z 18001KT 09/05 A3008 RMK A01 T00850047  RH  077%=      5-min Rain = 0
KJU1 180124Z 18001KT 09/05 A3008 RMK A01 T00850048  RH  077%=      5-min Rain = 0
KJU1 180125Z 18001KT 09/05 A3008 RMK A01 T00860050  RH  078%=      5-min Rain = 0
KJU1 180126Z 18001KT 09/05 A3008 RMK A01 T00870050  RH  078%=      5-min Rain = 0
KJU1 180127Z 20001KT 09/05 A3008 RMK A01 T00870050  RH  077%=      5-min Rain = 0
KJU1 180128Z 20002KT 09/05 A3008 RMK A01 T00870050  RH  077%=      5-min Rain = 0
KJU1 180129Z 21002KT 09/05 A3008 RMK A01 T00880050  RH  077%=      5-min Rain = 0
KJU1 180130Z 23001KT 09/05 A3008 RMK A01 T00880049  RH  077%=      5-min Rain = 0
KJU1 180131Z 24001KT 09/05 A3008 RMK A01 T00870048  RH  077%=      5-min Rain = 0
KJU1 180132Z 23001KT 09/05 A3008 RMK A01 T00870048  RH  077%=      5-min Rain = 0
KJU1 180133Z 21001KT 09/05 A3008 RMK A01 T00860047  RH  077%=      5-min Rain = 0
KJU1 180134Z 21002KT 09/05 A3008 RMK A01 T00850046  RH  077%=      5-min Rain = 0
KJU1 180135Z 21001KT 08/04 A3008 RMK A01 T00830044  RH  077%=      5-min Rain = 0
KJU1 180136Z 22001KT 08/05 A3008 RMK A01 T00820046  RH  078%=      5-min Rain = 0
KJU1 180137Z 22001KT 08/05 A3008 RMK A01 T00820047  RH  079%=      5-min Rain = 0
KJU1 180138Z 21000KT 08/05 A3008 RMK A01 T00820048  RH  079%=      5-min Rain = 0
KJU1 180139Z 00000KT 08/05 A3008 RMK A01 T00820049  RH  079%=      5-min Rain = 0
KJU1 180140Z 00000KT 08/05 A3008 RMK A01 T00820049  RH  080%=      5-min Rain = 0
KJU1 180141Z 00000KT 08/05 A3008 RMK A01 T00830048  RH  079%=      5-min Rain = 0
KJU1 180142Z 12000KT 08/05 A3008 RMK A01 T00820048  RH  079%=      5-min Rain = 0
KJU1 180143Z 12000KT 08/05 A3008 RMK A01 T00820049  RH  080%=      5-min Rain = 0
KJU1 180144Z 11000KT 08/05 A3008 RMK A01 T00820048  RH  079%=      5-min Rain = 0
KJU1 180145Z 10001KT 08/05 A3008 RMK A01 T00810049  RH  080%=      5-min Rain = 0
KJU1 180146Z 07001KT 08/05 A3008 RMK A01 T00810049  RH  080%=      5-min Rain = 0
KJU1 180147Z 06002KT 08/05 A3008 RMK A01 T00820050  RH  080%=      5-min Rain = 0
KJU1 180148Z 11001KT 08/05 A3008 RMK A01 T00820047  RH  079%=      5-min Rain = 0
KJU1 180149Z 13001KT 08/05 A3008 RMK A01 T00800048  RH  080%=      5-min Rain = 0
KJU1 180150Z 15002KT 08/05 A3008 RMK A01 T00820050  RH  081%=      5-min Rain = 0
KJU1 180151Z 14002KT 08/05 A3008 RMK A01 T00830049  RH  079%=      5-min Rain = 0
KJU1 180152Z 14002KT 08/05 A3008 RMK A01 T00800045  RH  079%=      5-min Rain = 0
KJU1 180153Z 11001KT 08/05 A3008 RMK A01 T00780046  RH  080%=      5-min Rain = 0
KJU1 180154Z 13001KT 08/05 A3008 RMK A01 T00790047  RH  081%=      5-min Rain = 0
KJU1 180155Z 15001KT 08/05 A3008 RMK A01 T00790047  RH  081%=      5-min Rain = 0
KJU1 180156Z 17001KT 08/05 A3008 RMK A01 T00780047  RH  081%=      5-min Rain = 0
KJU1 180157Z 17001KT 08/05 A3008 RMK A01 T00790048  RH  081%=      5-min Rain = 0
KJU1 180158Z 22002KT 08/05 A3008 RMK A01 T00790047  RH  080%=      5-min Rain = 0
KJU1 180159Z 21002KT 08/05 A3008 RMK A01 T00790047  RH  080%=      5-min Rain = 0
KJU1 180200Z 23002KT 08/05 A3008 RMK A01 T00810051  RH  081%=      5-min Rain = 0
KJU1 180201Z 22001KT 08/05 A3008 RMK A01 T00830053  RH  081%=      5-min Rain = 0
KJU1 180202Z 22002KT 08/05 A3008 RMK A01 T00840052  RH  080%=      5-min Rain = 0
KJU1 180203Z 22002KT 08/05 A3008 RMK A01 T00830047  RH  078%=      5-min Rain = 0
KJU1 180204Z 23002KT 08/04 A3008 RMK A01 T00790042  RH  077%=      5-min Rain = 0
KJU1 180205Z 23002KT 08/04 A3008 RMK A01 T00760040  RH  078%=      5-min Rain = 0
KJU1 180206Z 24001KT 07/04 A3008 RMK A01 T00740040  RH  079%=      5-min Rain = 0
KJU1 180207Z 23001KT 07/04 A3008 RMK A01 T00720041  RH  081%=      5-min Rain = 0
KJU1 180208Z 23001KT 07/04 A3008 RMK A01 T00720043  RH  082%=      5-min Rain = 0
KJU1 180209Z 24001KT 07/04 A3008 RMK A01 T00720044  RH  083%=      5-min Rain = 0
KJU1 180210Z 00000KT 07/04 A3008 RMK A01 T00690042  RH  083%=      5-min Rain = 0
KJU1 180211Z 00000KT 07/04 A3008 RMK A01 T00680043  RH  084%=      5-min Rain = 0
KJU1 180212Z 00000KT 07/05 A3008 RMK A01 T00700047  RH  085%=      5-min Rain = 0
KJU1 180213Z 00000KT 07/05 A3009 RMK A01 T00710046  RH  084%=      5-min Rain = 0
KJU1 180214Z 00000KT 07/05 A3009 RMK A01 T00710047  RH  085%=      5-min Rain = 0
KJU1 180215Z 00000KT 07/05 A3009 RMK A01 T00720048  RH  085%=      5-min Rain = 0
KJU1 180216Z 00000KT 07/05 A3009 RMK A01 T00710045  RH  084%=      5-min Rain = 0
KJU1 180217Z 24001KT 07/04 A3009 RMK A01 T00680042  RH  083%=      5-min Rain = 0
KJU1 180218Z 24000KT 07/04 A3009 RMK A01 T00670043  RH  084%=      5-min Rain = 0
KJU1 180219Z 22000KT 07/04 A3009 RMK A01 T00670044  RH  085%=      5-min Rain = 0
KJU1 180220Z 22001KT 07/04 A3009 RMK A01 T00670044  RH  085%=      5-min Rain = 0
KJU1 180221Z 21001KT 07/04 A3009 RMK A01 T00670044  RH  085%=      5-min Rain = 0
KJU1 180222Z 22001KT 07/04 A3009 RMK A01 T00670043  RH  085%=      5-min Rain = 0
KJU1 180223Z 21002KT 07/04 A3009 RMK A01 T00660044  RH  086%=      5-min Rain = 0
KJU1 180224Z 21001KT 07/05 A3009 RMK A01 T00670045  RH  086%=      5-min Rain = 0
KJU1 180225Z 21002KT 07/05 A3009 RMK A01 T00670045  RH  086%=      5-min Rain = 0
KJU1 180226Z 20002KT 07/05 A301 RMK A01 T00670046  RH  087%=      5-min Rain = 0
KJU1 180227Z 19002KT 07/05 A301 RMK A01 T00670045  RH  086%=      5-min Rain = 0
KJU1 180228Z 19002KT 07/04 A301 RMK A01 T00660044  RH  086%=      5-min Rain = 0
KJU1 180229Z 18002KT 07/04 A301 RMK A01 T00660044  RH  086%=      5-min Rain = 0
KJU1 180230Z 18002KT 06/04 A301 RMK A01 T00640041  RH  085%=      5-min Rain = 0
KJU1 180231Z 19002KT 06/04 A301 RMK A01 T00620039  RH  085%=      5-min Rain = 0
KJU1 180232Z 19002KT 06/04 A301 RMK A01 T00610039  RH  086%=      5-min Rain = 0
KJU1 180233Z 20002KT 06/04 A301 RMK A01 T00600038  RH  086%=      5-min Rain = 0
KJU1 180234Z 19003KT 06/04 A301 RMK A01 T00600038  RH  086%=      5-min Rain = 0
KJU1 180235Z 19003KT 06/04 A301 RMK A01 T00590039  RH  087%=      5-min Rain = 0
KJU1 180236Z 20003KT 06/04 A301 RMK A01 T00600042  RH  088%=      5-min Rain = 0
KJU1 180237Z 20003KT 06/05 A301 RMK A01 T00640048  RH  089%=      5-min Rain = 0
KJU1 180238Z 20003KT 07/05 A301 RMK A01 T00670051  RH  089%=      5-min Rain = 0
KJU1 180239Z 21003KT 07/05 A301 RMK A01 T00680048  RH  087%=      5-min Rain = 0
KJU1 180240Z 21003KT 07/05 A301 RMK A01 T00670045  RH  086%=      5-min Rain = 0
KJU1 180241Z 21003KT 07/05 A301 RMK A01 T00660045  RH  086%=      5-min Rain = 0
KJU1 180242Z 22002KT 07/04 A301 RMK A01 T00650043  RH  086%=      5-min Rain = 0
KJU1 180243Z 21003KT 07/05 A301 RMK A01 T00670047  RH  087%=      5-min Rain = 0
KJU1 180244Z 22003KT 07/05 A301 RMK A01 T00700052  RH  088%=      5-min Rain = 0
KJU1 180245Z 21002KT 07/05 A301 RMK A01 T00720051  RH  087%=      5-min Rain = 0
KJU1 180246Z 20002KT 07/05 A301 RMK A01 T00690046  RH  085%=      5-min Rain = 0
KJU1 180247Z 19002KT 07/04 A301 RMK A01 T00680044  RH  085%=      5-min Rain = 0
KJU1 180248Z 19003KT 07/04 A301 RMK A01 T00660042  RH  085%=      5-min Rain = 0
KJU1 180249Z 18003KT 07/04 A301 RMK A01 T00650041  RH  085%=      5-min Rain = 0
KJU1 180250Z 18003KT 06/04 A301 RMK A01 T00630041  RH  085%=      5-min Rain = 0
KJU1 180251Z 18003KT 06/04 A301 RMK A01 T00630042  RH  086%=      5-min Rain = 0
KJU1 180252Z 18003KT 07/05 A301 RMK A01 T00650047  RH  088%=      5-min Rain = 0
KJU1 180253Z 19003KT 07/05 A301 RMK A01 T00680050  RH  088%=      5-min Rain = 0
KJU1 180254Z 20003KT 07/05 A301 RMK A01 T00680048  RH  087%=      5-min Rain = 0
KJU1 180255Z 19003KT 07/05 A301 RMK A01 T00670046  RH  087%=      5-min Rain = 0
KJU1 180256Z 19003KT 07/05 A301 RMK A01 T00680049  RH  088%=      5-min Rain = 0
KJU1 180257Z 19002KT 07/05 A301 RMK A01 T00690049  RH  087%=      5-min Rain = 0
KJU1 180258Z 20001KT 07/05 A301 RMK A01 T00680047  RH  087%=      5-min Rain = 0
KJU1 180259Z 19002KT 07/04 A301 RMK A01 T00660044  RH  086%=      5-min Rain = 0
KJU1 180300Z 18002KT 07/04 A301 RMK A01 T00650043  RH  086%=      5-min Rain = 0
KJU1 180301Z 18002KT 07/04 A301 RMK A01 T00650044  RH  087%=      5-min Rain = 0
KJU1 180302Z 17002KT 07/05 A301 RMK A01 T00650045  RH  087%=      5-min Rain = 0
KJU1 180303Z 17002KT 07/05 A301 RMK A01 T00660047  RH  088%=      5-min Rain = 0
KJU1 180304Z 16002KT 07/04 A301 RMK A01 T00660044  RH  086%=      5-min Rain = 0
KJU1 180305Z 16002KT 06/04 A301 RMK A01 T00630039  RH  085%=      5-min Rain = 0
KJU1 180306Z 16002KT 06/04 A301 RMK A01 T00590035  RH  084%=      5-min Rain = 0
KJU1 180307Z 17002KT 06/03 A301 RMK A01 T00570034  RH  085%=      5-min Rain = 0
KJU1 180308Z 18002KT 06/04 A301 RMK A01 T00580039  RH  088%=      5-min Rain = 0
KJU1 180309Z 18002KT 06/04 A301 RMK A01 T00610044  RH  089%=      5-min Rain = 0
KJU1 180310Z 20003KT 06/05 A301 RMK A01 T00630046  RH  089%=      5-min Rain = 0
KJU1 180311Z 21003KT 06/04 A301 RMK A01 T00620044  RH  088%=      5-min Rain = 0
KJU1 180312Z 20004KT 06/05 A301 RMK A01 T00630046  RH  089%=      5-min Rain = 0
KJU1 180313Z 21004KT 06/05 A301 RMK A01 T00640046  RH  088%=      5-min Rain = 0
KJU1 180314Z 21004KT 06/04 A301 RMK A01 T00620042  RH  087%=      5-min Rain = 0
KJU1 180315Z 21004KT 06/04 A301 RMK A01 T00580037  RH  086%=      5-min Rain = 0
KJU1 180316Z 21003KT 06/03 A301 RMK A01 T00560034  RH  086%=      5-min Rain = 0
KJU1 180317Z 20003KT 05/03 A301 RMK A01 T00530032  RH  086%=      5-min Rain = 0
KJU1 180318Z 21003KT 05/03 A301 RMK A01 T00530034  RH  088%=      5-min Rain = 0
KJU1 180319Z 20003KT 05/04 A301 RMK A01 T00540038  RH  089%=      5-min Rain = 0
KJU1 180320Z 20003KT 06/04 A301 RMK A01 T00570043  RH  091%=      5-min Rain = 0
KJU1 180321Z 20003KT 06/05 A301 RMK A01 T00600047  RH  091%=      5-min Rain = 0
KJU1 180322Z 20003KT 06/05 A301 RMK A01 T00610047  RH  091%=      5-min Rain = 0
KJU1 180323Z 20003KT 06/05 A301 RMK A01 T00610047  RH  090%=      5-min Rain = 0
KJU1 180324Z 20004KT 06/05 A301 RMK A01 T00610047  RH  091%=      5-min Rain = 0
KJU1 180325Z 20004KT 06/05 A301 RMK A01 T00620047  RH  090%=      5-min Rain = 0
KJU1 180326Z 20004KT 06/05 A301 RMK A01 T00620047  RH  090%=      5-min Rain = 0
KJU1 180327Z 19004KT 06/05 A301 RMK A01 T00610046  RH  090%=      5-min Rain = 0
KJU1 180328Z 18004KT 06/04 A301 RMK A01 T00580040  RH  088%=      5-min Rain = 0
KJU1 180329Z 18003KT 06/04 A301 RMK A01 T00550036  RH  087%=      5-min Rain = 0
KJU1 180330Z 19003KT 05/03 A301 RMK A01 T00530034  RH  088%=      5-min Rain = 0
KJU1 180331Z 18003KT 05/04 A301 RMK A01 T00520035  RH  088%=      5-min Rain = 0
KJU1 180332Z 18003KT 05/04 A301 RMK A01 T00540038  RH  090%=      5-min Rain = 0
KJU1 180333Z 18004KT 06/04 A301 RMK A01 T00570043  RH  091%=      5-min Rain = 0
KJU1 180334Z 17002KT 06/05 A301 RMK A01 T00580045  RH  091%=      5-min Rain = 0
KJU1 180335Z 17001KT 06/04 A301 RMK A01 T00580044  RH  091%=      5-min Rain = 0
KJU1 180336Z 18002KT 06/04 A301 RMK A01 T00570041  RH  090%=      5-min Rain = 0
KJU1 180337Z 18002KT 06/04 A301 RMK A01 T00560041  RH  090%=      5-min Rain = 0
KJU1 180338Z 18003KT 06/04 A301 RMK A01 T00570043  RH  091%=      5-min Rain = 0
KJU1 180339Z 19002KT 06/05 A301 RMK A01 T00580045  RH  091%=      5-min Rain = 0
KJU1 180340Z 19003KT 06/05 A301 RMK A01 T00590046  RH  091%=      5-min Rain = 0
KJU1 180341Z 19003KT 06/04 A301 RMK A01 T00580043  RH  090%=      5-min Rain = 0
KJU1 180342Z 19003KT 06/04 A301 RMK A01 T00560039  RH  089%=      5-min Rain = 0
KJU1 180343Z 19004KT 06/04 A301 RMK A01 T00550040  RH  090%=      5-min Rain = 0
KJU1 180344Z 19003KT 06/04 A301 RMK A01 T00570043  RH  091%=      5-min Rain = 0
KJU1 180345Z 20003KT 06/05 A301 RMK A01 T00580045  RH  091%=      5-min Rain = 0
KJU1 180346Z 20003KT 06/05 A301 RMK A01 T00590046  RH  091%=      5-min Rain = 0
KJU1 180347Z 20002KT 06/05 A301 RMK A01 T00610048  RH  092%=      5-min Rain = 0
KJU1 180348Z 22002KT 06/05 A301 RMK A01 T00610046  RH  090%=      5-min Rain = 0
KJU1 180349Z 21001KT 06/04 A301 RMK A01 T00590043  RH  090%=      5-min Rain = 0
KJU1 180350Z 22001KT 06/05 A301 RMK A01 T00590045  RH  090%=      5-min Rain = 0
KJU1 180351Z 22001KT 06/05 A301 RMK A01 T00610047  RH  091%=      5-min Rain = 0
KJU1 180352Z 23002KT 06/05 A301 RMK A01 T00620048  RH  091%=      5-min Rain = 0
KJU1 180353Z 23002KT 06/04 A301 RMK A01 T00580040  RH  088%=      5-min Rain = 0
KJU1 180354Z 21002KT 06/04 A301 RMK A01 T00550037  RH  088%=      5-min Rain = 0
KJU1 180355Z 21002KT 06/04 A301 RMK A01 T00570042  RH  091%=      5-min Rain = 0
KJU1 180356Z 21001KT 06/05 A301 RMK A01 T00590045  RH  091%=      5-min Rain = 0
KJU1 180357Z 21001KT 06/05 A301 RMK A01 T00590046  RH  091%=      5-min Rain = 0
KJU1 180358Z 21002KT 06/05 A301 RMK A01 T00590046  RH  091%=      5-min Rain = 0
KJU1 180359Z 24001KT 06/04 A301 RMK A01 T00590044  RH  091%=      5-min Rain = 0
KJU1 180400Z 23002KT 06/04 A301 RMK A01 T00580043  RH  091%=      5-min Rain = 0
KJU1 180401Z 23002KT 06/04 A301 RMK A01 T00580044  RH  091%=      5-min Rain = 0
KJU1 180402Z 24002KT 06/04 A301 RMK A01 T00570043  RH  091%=      5-min Rain = 0
KJU1 180403Z 24002KT 06/04 A301 RMK A01 T00560041  RH  091%=      5-min Rain = 0
KJU1 180404Z 24003KT 05/04 A301 RMK A01 T00540040  RH  090%=      5-min Rain = 0
KJU1 180405Z 23003KT 05/03 A301 RMK A01 T00500034  RH  089%=      5-min Rain = 0
KJU1 180406Z 23002KT 05/03 A301 RMK A01 T00470031  RH  089%=      5-min Rain = 0
KJU1 180407Z 22002KT 05/03 A301 RMK A01 T00470032  RH  091%=      5-min Rain = 0
KJU1 180408Z 21001KT 05/04 A301 RMK A01 T00480037  RH  092%=      5-min Rain = 0
KJU1 180409Z 20001KT 05/04 A301 RMK A01 T00500040  RH  093%=      5-min Rain = 0
KJU1 180410Z 19001KT 05/04 A301 RMK A01 T00510041  RH  093%=      5-min Rain = 0
KJU1 180411Z 18002KT 05/04 A301 RMK A01 T00510041  RH  093%=      5-min Rain = 0
KJU1 180412Z 18002KT 05/04 A301 RMK A01 T00510040  RH  093%=      5-min Rain = 0
KJU1 180413Z 18003KT 05/04 A301 RMK A01 T00500039  RH  093%=      5-min Rain = 0
KJU1 180414Z 18003KT 05/04 A301 RMK A01 T00480038  RH  093%=      5-min Rain = 0
KJU1 180415Z 18004KT 05/04 A301 RMK A01 T00480038  RH  093%=      5-min Rain = 0
KJU1 180416Z 18004KT 05/04 A301 RMK A01 T00470037  RH  093%=      5-min Rain = 0
KJU1 180417Z 18003KT 05/04 A301 RMK A01 T00460035  RH  093%=      5-min Rain = 0
KJU1 180418Z 17002KT 05/03 A301 RMK A01 T00450034  RH  093%=      5-min Rain = 0
KJU1 180419Z 16002KT 04/03 A301 RMK A01 T00440034  RH  093%=      5-min Rain = 0
KJU1 180420Z 17002KT 04/04 A301 RMK A01 T00440035  RH  094%=      5-min Rain = 0
KJU1 180421Z 18002KT 05/04 A301 RMK A01 T00470039  RH  095%=      5-min Rain = 0
KJU1 180422Z 19002KT 05/04 A301 RMK A01 T00490041  RH  095%=      5-min Rain = 0
KJU1 180423Z 18001KT 05/04 A301 RMK A01 T00480039  RH  094%=      5-min Rain = 0
KJU1 180424Z 17001KT 05/04 A301 RMK A01 T00470037  RH  093%=      5-min Rain = 0
KJU1 180425Z 17000KT 05/04 A301 RMK A01 T00450035  RH  093%=      5-min Rain = 0
KJU1 180426Z 17002KT 04/03 A301 RMK A01 T00440034  RH  093%=      5-min Rain = 0
KJU1 180427Z 17003KT 04/03 A3011 RMK A01 T00440034  RH  093%=      5-min Rain = 0
KJU1 180428Z 18003KT 04/03 A3011 RMK A01 T00420032  RH  093%=      5-min Rain = 0
KJU1 180429Z 18003KT 04/03 A3011 RMK A01 T00410029  RH  092%=      5-min Rain = 0
KJU1 180430Z 19004KT 04/03 A3011 RMK A01 T00400029  RH  093%=      5-min Rain = 0
KJU1 180431Z 19004KT 04/03 A3011 RMK A01 T00410031  RH  094%=      5-min Rain = 0
KJU1 180432Z 19004KT 05/04 A3011 RMK A01 T00450038  RH  095%=      5-min Rain = 0
KJU1 180433Z 19004KT 05/04 A3011 RMK A01 T00490042  RH  096%=      5-min Rain = 0
KJU1 180434Z 20003KT 05/04 A3011 RMK A01 T00490042  RH  095%=      5-min Rain = 0
KJU1 180435Z 20004KT 05/04 A3011 RMK A01 T00490042  RH  095%=      5-min Rain = 0
KJU1 180436Z 20004KT 05/04 A3011 RMK A01 T00480039  RH  094%=      5-min Rain = 0
KJU1 180437Z 21003KT 04/03 A3011 RMK A01 T00430031  RH  092%=      5-min Rain = 0
KJU1 180438Z 20003KT 04/03 A3011 RMK A01 T00410031  RH  093%=      5-min Rain = 0
KJU1 180439Z 20003KT 05/04 A3011 RMK A01 T00450036  RH  094%=      5-min Rain = 0
KJU1 180440Z 20002KT 05/04 A3011 RMK A01 T00460037  RH  094%=      5-min Rain = 0
KJU1 180441Z 19001KT 05/04 A3011 RMK A01 T00450036  RH  094%=      5-min Rain = 0
KJU1 180442Z 17002KT 04/04 A3011 RMK A01 T00440035  RH  094%=      5-min Rain = 0
KJU1 180443Z 17002KT 05/04 A3011 RMK A01 T00460039  RH  095%=      5-min Rain = 0
KJU1 180444Z 17002KT 05/04 A3011 RMK A01 T00500043  RH  095%=      5-min Rain = 0
KJU1 180445Z 18003KT 05/04 A3011 RMK A01 T00490040  RH  094%=      5-min Rain = 0
KJU1 180446Z 19003KT 05/04 A3011 RMK A01 T00480039  RH  094%=      5-min Rain = 0
KJU1 180447Z 19003KT 05/04 A3011 RMK A01 T00480039  RH  094%=      5-min Rain = 0
KJU1 180448Z 20003KT 05/04 A3011 RMK A01 T00490040  RH  094%=      5-min Rain = 0
KJU1 180449Z 21004KT 05/04 A3011 RMK A01 T00510043  RH  095%=      5-min Rain = 0
KJU1 180450Z 21005KT 05/05 A3011 RMK A01 T00530046  RH  095%=      5-min Rain = 0
KJU1 180451Z 22006KT 05/05 A3011 RMK A01 T00540047  RH  095%=      5-min Rain = 0
KJU1 180452Z 22005KT 06/05 A3011 RMK A01 T00550046  RH  094%=      5-min Rain = 0
KJU1 180453Z 22005KT 06/05 A3011 RMK A01 T00550046  RH  094%=      5-min Rain = 0
KJU1 180454Z 22004KT 06/05 A3011 RMK A01 T00550046  RH  094%=      5-min Rain = 0
KJU1 180455Z 21003KT 06/05 A3011 RMK A01 T00560046  RH  093%=      5-min Rain = 0
KJU1 180456Z 20002KT 06/04 A3011 RMK A01 T00550043  RH  092%=      5-min Rain = 0
KJU1 180457Z 18002KT 05/04 A3012 RMK A01 T00520038  RH  091%=      5-min Rain = 0
KJU1 180458Z 18002KT 05/04 A3012 RMK A01 T00500037  RH  092%=      5-min Rain = 0
KJU1 180459Z 17003KT 05/04 A3012 RMK A01 T00500038  RH  092%=      5-min Rain = 0
KJU1 180500Z 17004KT 05/04 A3012 RMK A01 T00500039  RH  093%=      5-min Rain = 0
KJU1 180501Z 17005KT 05/04 A3011 RMK A01 T00500039  RH  092%=      5-min Rain = 0
KJU1 180502Z 17005KT 05/04 A3011 RMK A01 T00500038  RH  092%=      5-min Rain = 0
KJU1 180503Z 18005KT 05/04 A3011 RMK A01 T00500039  RH  093%=      5-min Rain = 0
KJU1 180504Z 17004KT 05/04 A3011 RMK A01 T00500039  RH  093%=      5-min Rain = 0
KJU1 180505Z 18003KT 05/04 A3011 RMK A01 T00490039  RH  093%=      5-min Rain = 0
KJU1 180506Z 19003KT 05/04 A3012 RMK A01 T00490039  RH  093%=      5-min Rain = 0
KJU1 180507Z 19003KT 05/04 A3011 RMK A01 T00490038  RH  093%=      5-min Rain = 0
KJU1 180508Z 20003KT 05/04 A3011 RMK A01 T00490038  RH  093%=      5-min Rain = 0
KJU1 180509Z 22003KT 05/04 A3011 RMK A01 T00490038  RH  093%=      5-min Rain = 0
KJU1 180510Z 23003KT 05/04 A3011 RMK A01 T00490039  RH  093%=      5-min Rain = 0
KJU1 180511Z 24003KT 05/04 A3011 RMK A01 T00490039  RH  093%=      5-min Rain = 0
KJU1 180512Z 25002KT 05/04 A3011 RMK A01 T00490039  RH  093%=      5-min Rain = 0
KJU1 180513Z 25002KT 05/04 A3011 RMK A01 T00500041  RH  094%=      5-min Rain = 0
KJU1 180514Z 23002KT 05/04 A3011 RMK A01 T00500040  RH  093%=      5-min Rain = 0
KJU1 180515Z 21001KT 05/04 A3011 RMK A01 T00490039  RH  093%=      5-min Rain = 0
KJU1 180516Z 20001KT 05/04 A3011 RMK A01 T00490038  RH  093%=      5-min Rain = 0
KJU1 180517Z 17001KT 05/04 A3011 RMK A01 T00480038  RH  093%=      5-min Rain = 0
KJU1 180518Z 16002KT 05/04 A301 RMK A01 T00480038  RH  093%=      5-min Rain = 0
KJU1 180519Z 17002KT 05/04 A301 RMK A01 T00480038  RH  093%=      5-min Rain = 0
KJU1 180520Z 18003KT 05/04 A301 RMK A01 T00480039  RH  094%=      5-min Rain = 0
KJU1 180521Z 19004KT 05/04 A301 RMK A01 T00460035  RH  093%=      5-min Rain = 0
KJU1 180522Z 20004KT 04/03 A301 RMK A01 T00440032  RH  092%=      5-min Rain = 0
KJU1 180523Z 20004KT 04/03 A3011 RMK A01 T00440033  RH  093%=      5-min Rain = 0
KJU1 180524Z 20004KT 04/03 A3011 RMK A01 T00430034  RH  094%=      5-min Rain = 0
KJU1 180525Z 21004KT 04/04 A3011 RMK A01 T00440035  RH  094%=      5-min Rain = 0
KJU1 180526Z 22003KT 04/04 A3011 RMK A01 T00440035  RH  094%=      5-min Rain = 0
KJU1 180527Z 23002KT 04/03 A3011 RMK A01 T00440034  RH  094%=      5-min Rain = 0
KJU1 180528Z 23002KT 04/03 A3011 RMK A01 T00430033  RH  094%=      5-min Rain = 0
KJU1 180529Z 24001KT 04/03 A3011 RMK A01 T00430033  RH  094%=      5-min Rain = 0
KJU1 180530Z 24000KT 04/03 A301 RMK A01 T00410030  RH  093%=      5-min Rain = 0
KJU1 180531Z 18000KT 04/03 A301 RMK A01 T00390029  RH  093%=      5-min Rain = 0
KJU1 180532Z 17001KT 04/03 A3011 RMK A01 T00400032  RH  094%=      5-min Rain = 0
KJU1 180533Z 16002KT 04/04 A3011 RMK A01 T00430036  RH  095%=      5-min Rain = 0
KJU1 180534Z 17003KT 04/04 A3011 RMK A01 T00440036  RH  095%=      5-min Rain = 0
KJU1 180535Z 17003KT 04/03 A3011 RMK A01 T00420033  RH  094%=      5-min Rain = 0
KJU1 180536Z 18004KT 04/03 A3011 RMK A01 T00400031  RH  094%=      5-min Rain = 0
KJU1 180537Z 18004KT 04/03 A3011 RMK A01 T00400032  RH  094%=      5-min Rain = 0
KJU1 180538Z 18004KT 04/03 A3011 RMK A01 T00400032  RH  094%=      5-min Rain = 0
KJU1 180539Z 17004KT 04/03 A3011 RMK A01 T00410033  RH  095%=      5-min Rain = 0
KJU1 180540Z 17003KT 04/03 A301 RMK A01 T00420034  RH  095%=      5-min Rain = 0
KJU1 180541Z 17003KT 04/04 A301 RMK A01 T00430035  RH  095%=      5-min Rain = 0
KJU1 180542Z 18003KT 04/03 A301 RMK A01 T00410032  RH  094%=      5-min Rain = 0
KJU1 180543Z 18002KT 04/03 A301 RMK A01 T00390030  RH  094%=      5-min Rain = 0
KJU1 180544Z 19002KT 04/03 A301 RMK A01 T00380028  RH  094%=      5-min Rain = 0
KJU1 180545Z 18002KT 04/03 A301 RMK A01 T00380029  RH  094%=      5-min Rain = 0
KJU1 180546Z 17002KT 04/03 A301 RMK A01 T00380029  RH  094%=      5-min Rain = 0
KJU1 180547Z 16002KT 04/03 A301 RMK A01 T00380030  RH  095%=      5-min Rain = 0
KJU1 180548Z 17002KT 04/03 A301 RMK A01 T00390031  RH  095%=      5-min Rain = 0
KJU1 180549Z 17002KT 04/03 A301 RMK A01 T00390031  RH  095%=      5-min Rain = 0
KJU1 180550Z 17002KT 04/03 A301 RMK A01 T00390031  RH  095%=      5-min Rain = 0
KJU1 180551Z 17002KT 04/03 A301 RMK A01 T00380030  RH  095%=      5-min Rain = 0
KJU1 180552Z 17004KT 04/03 A301 RMK A01 T00360028  RH  094%=      5-min Rain = 0
KJU1 180553Z 18004KT 03/03 A301 RMK A01 T00340025  RH  094%=      5-min Rain = 0
KJU1 180554Z 19004KT 03/03 A301 RMK A01 T00340025  RH  094%=      5-min Rain = 0
KJU1 180555Z 19004KT 03/03 A301 RMK A01 T00340026  RH  095%=      5-min Rain = 0
KJU1 180556Z 20004KT 04/03 A301 RMK A01 T00350028  RH  095%=      5-min Rain = 0
KJU1 180557Z 20004KT 04/03 A301 RMK A01 T00370031  RH  096%=      5-min Rain = 0
KJU1 180558Z 19004KT 04/03 A301 RMK A01 T00390034  RH  096%=      5-min Rain = 0
KJU1 180559Z 20003KT 04/04 A301 RMK A01 T00410036  RH  096%=      5-min Rain = 0

Page generated in 0.1189 seconds.